Data Archive--June, 2002

Date Time Current Temp Wind Chill High Temp Low Temp Wind Speed Gust Wind Direction Rain Barometer
06/01/2002 12:00 a 66.1 66.1 66.4 65.9 0.0 0.0 --- 0.00 29.480
06/01/2002 12:30 a 66.4 66.4 66.6 66.2 0.0 0.0 --- 0.00 29.501
06/01/2002 1:00 a 66.6 66.6 66.7 66.5 0.0 0.0 --- 0.00 29.507
06/01/2002 1:30 a 66.5 66.5 66.6 66.4 0.0 0.0 --- 0.00 29.511
06/01/2002 2:00 a 66.2 66.2 66.5 66.0 0.0 0.0 --- 0.00 29.516
06/01/2002 2:30 a 66.0 66.0 66.0 65.9 0.0 0.0 --- 0.00 29.519
06/01/2002 3:00 a 65.9 65.9 66.2 65.7 0.0 0.0 --- 0.00 29.524
06/01/2002 3:30 a 65.6 65.6 65.8 65.3 0.0 0.0 --- 0.00 29.532
06/01/2002 4:00 a 65.2 65.2 65.4 64.9 0.0 0.0 --- 0.00 29.533
06/01/2002 4:30 a 64.8 64.8 65.0 64.5 0.0 0.0 --- 0.00 29.540
06/01/2002 5:00 a 64.3 64.3 64.6 64.0 0.0 0.0 --- 0.00 29.547
06/01/2002 5:30 a 63.9 63.9 64.2 63.6 0.0 0.0 --- 0.00 29.554
06/01/2002 6:00 a 63.6 63.6 63.9 63.3 0.0 0.0 --- 0.00 29.557
06/01/2002 6:30 a 63.9 63.9 64.6 63.5 0.0 0.0 --- 0.00 29.561
06/01/2002 7:00 a 64.8 64.8 65.2 64.4 0.0 0.0 --- 0.00 29.563
06/01/2002 7:30 a 65.9 65.9 66.6 65.2 0.0 0.0 --- 0.00 29.566
06/01/2002 8:00 a 67.3 67.3 68.0 66.6 0.0 0.0 --- 0.00 29.566
06/01/2002 8:30 a 68.4 68.4 68.8 68.0 0.0 0.0 --- 0.00 29.569
06/01/2002 9:00 a 69.4 69.4 70.0 68.6 0.0 0.0 --- 0.00 29.573
06/01/2002 9:30 a 70.7 70.7 71.6 70.0 0.0 0.0 --- 0.00 29.568
06/01/2002 10:00 a 72.9 72.9 74.0 71.5 0.0 3.0 ENE 0.00 29.562
06/01/2002 10:30 a 75.3 75.3 76.3 74.0 0.0 0.0 --- 0.00 29.559
06/01/2002 11:00 a 77.4 77.4 78.8 76.2 0.0 3.0 ENE 0.00 29.555
06/01/2002 11:30 a 79.5 79.5 80.5 78.3 0.0 1.0 --- 0.00 29.553
06/01/2002 12:00 p 81.2 81.2 82.2 80.5 0.0 5.0 N 0.00 29.544
06/01/2002 12:30 p 83.1 83.1 83.8 82.1 0.0 3.0 N 0.00 29.533
06/01/2002 1:00 p 84.6 84.6 85.5 83.7 0.0 1.0 SSE 0.00 29.518
06/01/2002 1:30 p 86.4 86.4 87.1 85.5 0.0 3.0 SE 0.00 29.502
06/01/2002 2:00 p 86.8 86.8 87.4 86.0 0.0 1.0 SE 0.00 29.489
06/01/2002 2:30 p 87.2 87.2 87.7 86.8 0.0 5.0 SSE 0.00 29.476
06/01/2002 3:00 p 87.5 87.5 87.9 87.1 0.0 3.0 N 0.00 29.464
06/01/2002 3:30 p 87.6 87.6 88.1 87.3 0.0 3.0 NW 0.00 29.453
06/01/2002 4:00 p 87.8 87.8 88.0 87.4 0.0 5.0 WNW 0.00 29.448
06/01/2002 4:30 p 87.0 87.0 87.5 86.3 0.0 6.0 NNW 0.00 29.439
06/01/2002 5:00 p 85.6 85.6 86.4 84.8 0.0 8.0 NNW 0.00 29.435
06/01/2002 5:30 p 84.4 84.4 85.1 83.9 0.0 0.0 --- 0.00 29.429
06/01/2002 6:00 p 83.6 83.6 84.0 83.0 0.0 3.0 NW 0.00 29.429
06/01/2002 6:30 p 82.1 82.1 83.1 81.5 0.0 0.0 --- 0.00 29.428
06/01/2002 7:00 p 81.0 81.0 81.6 80.3 0.0 0.0 --- 0.00 29.433
06/01/2002 7:30 p 79.2 79.2 80.3 78.0 0.0 0.0 --- 0.00 29.433
06/01/2002 8:00 p 77.2 77.2 78.0 76.6 0.0 0.0 --- 0.00 29.435
06/01/2002 8:30 p 76.8 76.8 77.4 76.4 0.0 0.0 --- 0.00 29.447
06/01/2002 9:00 p 75.5 75.5 77.3 74.4 0.0 0.0 --- 0.00 29.447
06/01/2002 9:30 p 73.7 73.7 74.4 73.3 0.0 0.0 --- 0.00 29.452
06/01/2002 10:00 p 73.6 73.6 74.3 72.8 0.0 0.0 --- 0.00 29.457
06/01/2002 10:30 p 72.4 72.4 72.8 72.1 0.0 0.0 --- 0.00 29.457
06/01/2002 11:00 p 71.9 71.9 72.2 71.5 0.0 0.0 --- 0.00 29.453
06/01/2002 11:30 p 71.2 71.2 71.6 70.8 0.0 0.0 --- 0.00 29.453
06/02/2002 12:00 a 70.7 70.7 70.9 70.5 0.0 0.0 --- 0.00 29.453
06/02/2002 12:30 a 70.1 70.1 70.5 69.9 0.0 0.0 --- 0.00 29.444
06/02/2002 1:00 a 69.4 69.4 69.9 69.0 0.0 0.0 --- 0.00 29.435
06/02/2002 1:30 a 68.6 68.6 69.0 68.3 0.0 0.0 --- 0.00 29.428
06/02/2002 2:00 a 68.2 68.2 68.5 67.9 0.0 0.0 --- 0.00 29.421
06/02/2002 2:30 a 68.0 68.0 68.3 67.5 0.0 0.0 --- 0.00 29.419
06/02/2002 3:00 a 67.2 67.2 67.5 66.8 0.0 0.0 --- 0.00 29.420
06/02/2002 3:30 a 65.9 65.9 66.9 65.3 0.0 0.0 --- 0.00 29.412
06/02/2002 4:00 a 65.2 65.2 65.4 65.0 0.0 0.0 --- 0.00 29.403
06/02/2002 4:30 a 64.7 64.7 65.1 64.1 0.0 0.0 --- 0.00 29.399
06/02/2002 5:00 a 63.8 63.8 64.2 63.4 0.0 0.0 --- 0.00 29.398
06/02/2002 5:30 a 63.3 63.3 63.7 62.9 0.0 0.0 --- 0.00 29.389
06/02/2002 6:00 a 62.9 62.9 63.0 62.6 0.0 0.0 --- 0.00 29.381
06/02/2002 6:30 a 63.5 63.5 64.2 62.7 0.0 0.0 --- 0.00 29.384
06/02/2002 7:00 a 64.4 64.4 65.1 63.9 0.0 0.0 --- 0.00 29.389
06/02/2002 7:30 a 65.6 65.6 66.1 65.0 0.0 0.0 --- 0.00 29.395
06/02/2002 8:00 a 67.2 67.2 67.8 66.1 0.0 0.0 --- 0.00 29.406
06/02/2002 8:30 a 67.8 67.8 68.5 67.2 0.0 0.0 --- 0.00 29.413
06/02/2002 9:00 a 68.3 68.3 69.0 67.8 0.0 0.0 --- 0.00 29.419
06/02/2002 9:30 a 71.4 71.4 73.2 69.0 0.0 0.0 --- 0.00 29.412
06/02/2002 10:00 a 74.1 74.1 74.8 73.2 0.0 0.0 --- 0.00 29.410
06/02/2002 10:30 a 76.5 76.5 77.8 74.7 0.0 9.0 E 0.00 29.413
06/02/2002 11:00 a 78.6 78.6 79.2 77.9 1.0 7.0 SSE 0.00 29.426
06/02/2002 11:30 a 79.5 79.5 80.4 78.8 1.0 10.0 SSE 0.00 29.447
06/02/2002 12:00 p 79.8 79.8 80.9 78.6 1.0 10.0 SSE 0.00 29.448
06/02/2002 12:30 p 80.1 80.1 80.9 79.5 2.0 11.0 SSE 0.00 29.460
06/02/2002 1:00 p 80.3 80.3 81.0 79.3 1.0 9.0 SSE 0.00 29.462
06/02/2002 1:30 p 81.1 81.1 82.1 80.2 1.0 7.0 SSE 0.00 29.463
06/02/2002 2:00 p 80.5 80.5 81.3 79.6 1.0 10.0 SSE 0.00 29.470
06/02/2002 2:30 p 80.3 80.3 81.7 79.1 1.0 9.0 SSE 0.00 29.472
06/02/2002 3:00 p 79.6 79.6 80.5 78.7 2.0 9.0 SSE 0.00 29.477
06/02/2002 3:30 p 79.6 79.6 80.6 78.8 2.0 11.0 SSE 0.00 29.489
06/02/2002 4:00 p 79.0 79.0 80.0 78.4 1.0 9.0 SSE 0.00 29.494
06/02/2002 4:30 p 78.5 78.5 79.0 78.0 1.0 6.0 SSE 0.00 29.499
06/02/2002 5:00 p 77.4 77.4 78.2 76.7 1.0 11.0 SSE 0.00 29.512
06/02/2002 5:30 p 76.2 76.2 77.1 75.6 1.0 9.0 SSE 0.00 29.518
06/02/2002 6:00 p 75.8 75.8 76.4 75.3 0.0 8.0 SSE 0.00 29.527
06/02/2002 6:30 p 75.1 75.1 75.5 74.6 1.0 11.0 SSE 0.00 29.534
06/02/2002 7:00 p 74.1 74.1 74.6 73.6 1.0 8.0 SSE 0.00 29.550
06/02/2002 7:30 p 73.1 73.1 73.6 72.4 1.0 8.0 SSE 0.00 29.567
06/02/2002 8:00 p 71.9 71.9 72.4 71.1 0.0 5.0 SE 0.00 29.588
06/02/2002 8:30 p 70.4 70.4 71.1 69.6 0.0 5.0 SE 0.00 29.598
06/02/2002 9:00 p 69.1 69.1 69.6 68.6 0.0 3.0 SE 0.00 29.612
06/02/2002 9:30 p 68.0 68.0 68.6 67.7 0.0 0.0 --- 0.00 29.638
06/02/2002 10:00 p 67.3 67.3 67.8 66.9 0.0 5.0 SSE 0.00 29.663
06/02/2002 10:30 p 66.5 66.5 67.1 66.0 0.0 4.0 SSE 0.00 29.694
06/02/2002 11:00 p 65.5 65.5 66.0 64.9 0.0 7.0 SSE 0.00 29.703
06/02/2002 11:30 p 64.6 64.6 64.9 64.2 0.0 9.0 SE 0.00 29.707
06/03/2002 12:00 a 63.9 63.9 64.4 63.4 1.0 6.0 SSE 0.00 29.717
06/03/2002 12:30 a 63.2 63.2 63.5 62.9 1.0 6.0 SSE 0.00 29.734
06/03/2002 1:00 a 62.8 62.8 63.3 62.1 0.0 4.0 SSE 0.00 29.732
06/03/2002 1:30 a 62.2 62.2 62.6 61.9 0.0 4.0 SSE 0.00 29.735
06/03/2002 2:00 a 61.9 61.9 62.3 61.4 0.0 6.0 SE 0.00 29.744
06/03/2002 2:30 a 61.6 61.6 62.6 60.3 0.0 0.0 --- 0.00 29.738
06/03/2002 3:00 a 60.3 60.3 60.7 59.6 0.0 5.0 SE 0.00 29.737
06/03/2002 3:30 a 59.4 59.4 59.7 59.0 0.0 5.0 SSE 0.00 29.750
06/03/2002 4:00 a 60.0 60.0 60.4 59.6 0.0 1.0 --- 0.00 29.756
06/03/2002 4:30 a 60.0 60.0 60.7 59.5 0.0 0.0 --- 0.00 29.765
06/03/2002 5:00 a 59.1 59.1 59.8 58.3 0.0 0.0 --- 0.00 29.776
06/03/2002 5:30 a 58.0 58.0 58.5 57.6 0.0 0.0 --- 0.00 29.807
06/03/2002 6:00 a 58.3 58.3 58.8 57.6 0.0 0.0 --- 0.00 29.815
06/03/2002 6:30 a 59.0 59.0 59.4 58.5 0.0 0.0 --- 0.00 29.828
06/03/2002 7:00 a 58.8 58.8 59.4 58.0 0.0 0.0 --- 0.00 29.843
06/03/2002 7:30 a 58.6 58.6 59.5 57.9 0.0 4.0 SSE 0.00 29.845
06/03/2002 8:00 a 59.2 59.2 60.0 58.6 0.0 0.0 --- 0.00 29.865
06/03/2002 8:30 a 61.2 61.2 63.3 59.3 0.0 3.0 SSE 0.00 29.874
06/03/2002 9:00 a 63.2 63.2 63.9 62.1 0.0 0.0 --- 0.00 29.887
06/03/2002 9:30 a 63.9 63.9 65.2 62.5 0.0 0.0 --- 0.00 29.883
06/03/2002 10:00 a 65.3 65.3 67.1 64.3 0.0 0.0 --- 0.00 29.878
06/03/2002 10:30 a 67.4 67.4 68.7 66.7 0.0 5.0 SSE 0.00 29.886
06/03/2002 11:00 a 69.3 69.3 71.0 68.2 0.0 3.0 SE 0.00 29.879
06/03/2002 11:30 a 70.4 70.4 71.2 69.6 0.0 6.0 SSE 0.00 29.880
06/03/2002 12:00 p 71.6 71.6 73.1 70.4 0.0 6.0 SE 0.00 29.868
06/03/2002 12:30 p 72.7 72.7 74.0 71.7 0.0 7.0 SSE 0.00 29.871
06/03/2002 1:00 p 73.2 73.2 74.1 72.1 1.0 7.0 SE 0.00 29.862
06/03/2002 1:30 p 73.9 73.9 75.2 72.9 1.0 6.0 SSE 0.00 29.859
06/03/2002 2:00 p 75.0 75.0 76.0 73.8 0.0 6.0 SSE 0.00 29.854
06/03/2002 2:30 p 75.9 75.9 77.5 74.3 0.0 3.0 SE 0.00 29.845
06/03/2002 3:00 p 74.4 74.4 75.2 73.9 0.0 0.0 --- 0.00 29.837
06/03/2002 3:30 p 74.5 74.5 75.0 74.2 0.0 0.0 --- 0.00 29.832
06/03/2002 4:00 p 74.6 74.6 75.0 74.0 0.0 0.0 --- 0.00 29.838
06/03/2002 4:30 p 74.4 74.4 75.1 73.7 0.0 0.0 --- 0.00 29.841
06/03/2002 5:00 p 74.8 74.8 76.2 73.8 0.0 4.0 SSE 0.02 29.839
06/03/2002 5:30 p 73.4 73.4 74.3 72.7 0.0 3.0 SSE 0.00 29.838
06/03/2002 6:00 p 73.0 73.0 73.5 72.7 0.0 4.0 W 0.00 29.844
06/03/2002 6:30 p 72.5 72.5 72.8 72.0 0.0 3.0 SSW 0.00 29.847
06/03/2002 7:00 p 71.3 71.3 72.6 70.2 0.0 2.0 SW 0.00 29.857
06/03/2002 7:30 p 70.2 70.2 71.0 69.6 0.0 0.0 --- 0.00 29.859
06/03/2002 8:00 p 68.7 68.7 69.6 67.8 0.0 0.0 --- 0.00 29.863
06/03/2002 8:30 p 66.9 66.9 67.8 66.1 0.0 0.0 --- 0.00 29.872
06/03/2002 9:00 p 66.8 66.8 67.1 66.2 0.0 0.0 --- 0.00 29.878
06/03/2002 9:30 p 67.2 67.2 67.6 66.4 0.0 0.0 --- 0.00 29.896
06/03/2002 10:00 p 66.6 66.6 66.9 66.3 0.0 0.0 --- 0.00 29.912
06/03/2002 10:30 p 66.0 66.0 66.5 65.3 0.0 0.0 --- 0.00 29.919
06/03/2002 11:00 p 64.7 64.7 65.3 64.3 0.0 0.0 --- 0.00 29.921
06/03/2002 11:30 p 64.0 64.0 64.4 63.7 0.0 0.0 --- 0.00 29.932
06/04/2002 12:00 a 63.5 63.5 64.1 63.0 0.0 0.0 --- 0.00 29.937
06/04/2002 12:30 a 64.0 64.0 64.5 63.4 0.0 1.0 SW 0.00 29.942
06/04/2002 1:00 a 63.2 63.2 63.7 62.9 0.0 0.0 --- 0.00 29.946
06/04/2002 1:30 a 65.5 65.5 71.4 62.9 0.0 0.0 --- 0.00 29.945
06/04/2002 2:00 a 65.9 65.9 70.5 64.2 0.0 0.0 --- 0.00 29.941
06/04/2002 2:30 a 64.0 64.0 64.2 63.6 0.0 0.0 --- 0.00 29.939
06/04/2002 3:00 a 63.6 63.6 63.8 63.5 0.0 0.0 --- 0.00 29.936
06/04/2002 3:30 a 62.4 62.4 63.5 60.7 0.0 0.0 --- 0.00 29.934
06/04/2002 4:00 a 59.9 59.9 60.8 58.7 0.0 0.0 --- 0.00 29.941
06/04/2002 4:30 a 57.6 57.6 58.7 56.6 0.0 0.0 --- 0.00 29.959
06/04/2002 5:00 a 56.3 56.3 57.1 55.6 0.0 0.0 --- 0.00 29.972
06/04/2002 5:30 a 55.0 55.0 55.6 54.3 0.0 0.0 --- 0.00 29.976
06/04/2002 6:00 a 55.8 55.8 57.3 54.8 0.0 0.0 --- 0.00 29.987
06/04/2002 6:30 a 58.7 58.7 59.8 57.3 0.0 0.0 --- 0.00 29.981
06/04/2002 7:00 a 59.9 59.9 60.8 59.4 0.0 0.0 --- 0.00 29.988
06/04/2002 7:30 a 61.7 61.7 62.0 60.8 0.0 0.0 --- 0.00 29.999
06/04/2002 8:00 a 62.5 62.5 63.0 62.0 0.0 0.0 --- 0.00 30.006
06/04/2002 8:30 a 67.4 67.4 71.8 63.0 0.0 2.0 SW 0.00 30.010
06/04/2002 9:00 a 67.9 67.9 70.7 66.3 0.0 1.0 SW 0.00 30.011
06/04/2002 9:30 a 70.6 70.6 72.0 69.5 0.0 2.0 S 0.00 30.011
06/04/2002 10:00 a 70.9 70.9 72.0 69.8 0.0 3.0 ESE 0.00 30.011
06/04/2002 10:30 a 73.5 73.5 75.4 71.7 0.0 3.0 E 0.00 30.018
06/04/2002 11:00 a 74.2 74.2 75.5 73.4 0.0 3.0 E 0.00 30.015
06/04/2002 11:30 a 75.4 75.4 76.8 73.1 0.0 4.0 E 0.00 30.004
06/04/2002 12:00 p 76.5 76.5 77.7 74.5 0.0 4.0 ENE 0.00 29.993
06/04/2002 12:30 p 76.4 76.4 78.3 74.3 1.0 4.0 E 0.00 29.990
06/04/2002 1:00 p 76.9 76.9 78.3 75.1 1.0 4.0 E 0.00 29.978
06/04/2002 1:30 p 76.1 76.1 78.3 74.0 1.0 5.0 E 0.00 29.986
06/04/2002 2:00 p 74.3 74.3 75.7 72.9 0.0 4.0 SE 0.00 29.981
06/04/2002 2:30 p 75.2 75.2 76.7 73.7 0.0 4.0 E 0.00 29.966
06/04/2002 3:00 p 76.0 76.0 78.9 73.9 1.0 4.0 E 0.00 29.965
06/04/2002 3:30 p 74.1 74.1 75.4 73.5 1.0 7.0 E 0.00 29.961
06/04/2002 4:00 p 76.3 76.3 78.0 75.3 1.0 4.0 E 0.00 29.957
06/04/2002 4:30 p 75.3 75.3 76.4 73.7 1.0 5.0 E 0.00 29.957
06/04/2002 5:00 p 72.9 72.9 73.7 72.5 0.0 3.0 NE 0.00 29.955
06/04/2002 5:30 p 72.6 72.6 73.4 72.0 1.0 4.0 NE 0.00 29.953
06/04/2002 6:00 p 73.2 73.2 74.8 72.1 0.0 4.0 E 0.00 29.961
06/04/2002 6:30 p 72.2 72.2 73.5 71.4 0.0 5.0 E 0.00 29.962
06/04/2002 7:00 p 70.7 70.7 71.7 70.2 0.0 3.0 E 0.00 29.973
06/04/2002 7:30 p 69.7 69.7 70.3 69.3 0.0 4.0 ENE 0.00 29.976
06/04/2002 8:00 p 69.1 69.1 69.5 68.6 1.0 4.0 E 0.00 29.967
06/04/2002 8:30 p 68.5 68.5 68.8 68.2 0.0 3.0 ENE 0.00 29.973
06/04/2002 9:00 p 67.8 67.8 68.2 67.6 0.0 3.0 ENE 0.00 29.973
06/04/2002 9:30 p 67.5 67.5 67.9 67.1 0.0 4.0 E 0.00 29.983
06/04/2002 10:00 p 67.0 67.0 67.3 66.6 0.0 3.0 SE 0.00 29.970
06/04/2002 10:30 p 67.4 67.4 70.6 66.2 0.0 3.0 ENE 0.00 29.953
06/04/2002 11:00 p 67.4 67.4 69.3 66.3 0.0 4.0 ENE 0.00 29.977
06/04/2002 11:30 p 66.1 66.1 66.7 65.8 0.0 1.0 ENE 0.00 29.969
06/05/2002 12:00 a 66.0 66.0 66.2 65.8 0.0 2.0 ENE 0.00 29.972
06/05/2002 12:30 a 66.1 66.1 66.2 66.0 0.0 1.0 N 0.00 29.966
06/05/2002 1:00 a 66.2 66.2 66.4 66.1 0.0 1.0 --- 0.00 29.950
06/05/2002 1:30 a 66.3 66.3 66.5 66.1 0.0 4.0 N 0.00 29.940
06/05/2002 2:00 a 65.9 65.9 66.2 65.7 0.0 1.0 --- 0.00 29.914
06/05/2002 2:30 a 65.9 65.9 66.0 65.7 0.0 1.0 W 0.00 29.909
06/05/2002 3:00 a 65.9 65.9 66.0 65.7 0.0 0.0 --- 0.00 29.899
06/05/2002 3:30 a 65.8 65.8 66.0 65.7 0.0 0.0 --- 0.00 29.885
06/05/2002 4:00 a 65.7 65.7 66.0 65.2 0.0 0.0 --- 0.00 29.862
06/05/2002 4:30 a 64.9 64.9 65.3 64.7 0.0 0.0 --- 0.00 29.868
06/05/2002 5:00 a 64.4 64.4 64.8 63.7 0.0 0.0 --- 0.00 29.863
06/05/2002 5:30 a 64.1 64.1 64.7 63.7 0.0 0.0 --- 0.00 29.873
06/05/2002 6:00 a 64.8 64.8 65.0 64.6 0.0 0.0 --- 0.00 29.866
06/05/2002 6:30 a 65.6 65.6 66.0 64.8 0.0 1.0 --- 0.00 29.864
06/05/2002 7:00 a 66.7 66.7 67.5 65.9 0.0 0.0 --- 0.00 29.871
06/05/2002 7:30 a 67.4 67.4 67.9 67.0 0.0 0.0 --- 0.00 29.882
06/05/2002 8:00 a 68.2 68.2 68.9 67.9 0.0 1.0 W 0.00 29.873
06/05/2002 8:30 a 69.3 69.3 70.1 68.9 0.0 0.0 --- 0.00 29.875
06/05/2002 9:00 a 71.3 71.3 72.6 70.1 0.0 0.0 --- 0.00 29.870
06/05/2002 9:30 a 73.7 73.7 74.9 72.5 0.0 1.0 NNW 0.00 29.857
06/05/2002 10:00 a 75.4 75.4 76.4 74.3 0.0 1.0 NNW 0.00 29.855
06/05/2002 10:30 a 76.7 76.7 77.9 75.0 0.0 2.0 N 0.00 29.846
06/05/2002 11:00 a 78.8 78.8 81.0 77.5 0.0 1.0 NNE 0.00 29.836
06/05/2002 11:30 a 80.7 80.7 81.9 79.7 0.0 3.0 N 0.00 29.828
06/05/2002 12:00 p 83.0 83.0 84.4 81.4 0.0 3.0 NW 0.00 29.820
06/05/2002 12:30 p 85.0 85.0 86.9 83.0 0.0 3.0 W 0.00 29.806
06/05/2002 1:00 p 86.7 86.7 87.8 85.8 0.0 2.0 NE 0.00 29.801
06/05/2002 1:30 p 88.3 88.3 89.6 87.0 0.0 3.0 W 0.00 29.789
06/05/2002 2:00 p 89.3 89.3 90.6 87.5 0.0 2.0 ESE 0.00 29.784
06/05/2002 2:30 p 87.7 87.7 89.1 85.5 0.0 3.0 E 0.00 29.778
06/05/2002 3:00 p 88.5 88.5 90.0 87.5 0.0 2.0 ENE 0.00 29.767
06/05/2002 3:30 p 88.9 88.9 89.7 87.5 0.0 2.0 ENE 0.00 29.759
06/05/2002 4:00 p 88.5 88.5 90.0 86.9 0.0 2.0 WSW 0.00 29.756
06/05/2002 4:30 p 87.1 87.1 88.6 86.3 0.0 1.0 W 0.00 29.745
06/05/2002 5:00 p 85.4 85.4 86.5 84.2 0.0 1.0 N 0.00 29.733
06/05/2002 5:30 p 84.7 84.7 85.3 84.2 0.0 1.0 N 0.00 29.715
06/05/2002 6:00 p 85.0 85.0 85.2 84.7 0.0 1.0 N 0.00 29.701
06/05/2002 6:30 p 84.9 84.9 85.3 84.4 0.0 2.0 W 0.00 29.703
06/05/2002 7:00 p 84.0 84.0 84.4 83.4 0.0 1.0 N 0.00 29.699
06/05/2002 7:30 p 82.7 82.7 83.4 81.6 0.0 3.0 NE 0.00 29.706
06/05/2002 8:00 p 81.3 81.3 81.8 80.7 0.0 3.0 N 0.00 29.708
06/05/2002 8:30 p 80.2 80.2 81.0 79.5 0.0 2.0 W 0.00 29.700
06/05/2002 9:00 p 79.1 79.1 79.5 78.6 0.0 2.0 NW 0.00 29.695
06/05/2002 9:30 p 78.2 78.2 78.8 77.3 0.0 3.0 WNW 0.00 29.695
06/05/2002 10:00 p 77.0 77.0 77.4 76.6 0.0 3.0 WNW 0.00 29.712
06/05/2002 10:30 p 76.2 76.2 76.6 75.8 0.0 1.0 --- 0.00 29.709
06/05/2002 11:00 p 75.5 75.5 75.8 75.3 0.0 1.0 --- 0.00 29.714
06/05/2002 11:30 p 74.9 74.9 75.6 73.9 0.0 1.0 --- 0.00 29.708
06/06/2002 12:00 a 73.9 73.9 74.1 73.6 0.0 1.0 NW 0.00 29.712
06/06/2002 12:30 a 73.6 73.6 74.0 73.3 0.0 3.0 WNW 0.00 29.689
06/06/2002 1:00 a 72.8 72.8 73.3 72.4 0.0 2.0 WNW 0.00 29.708
06/06/2002 1:30 a 72.0 72.0 72.5 71.7 0.0 1.0 WNW 0.00 29.722
06/06/2002 2:00 a 73.0 73.0 73.4 72.5 0.0 4.0 WSW 0.00 29.718
06/06/2002 2:30 a 71.9 71.9 72.8 71.4 0.0 0.0 --- 0.00 29.712
06/06/2002 3:00 a 70.6 70.6 71.4 70.1 0.0 0.0 --- 0.00 29.684
06/06/2002 3:30 a 70.0 70.0 70.3 69.6 0.0 0.0 --- 0.00 29.689
06/06/2002 4:00 a 70.1 70.1 70.4 69.9 0.0 0.0 --- 0.00 29.683
06/06/2002 4:30 a 69.8 69.8 70.4 69.5 0.0 0.0 --- 0.00 29.677
06/06/2002 5:00 a 69.3 69.3 69.5 69.1 0.0 0.0 --- 0.00 29.672
06/06/2002 5:30 a 69.1 69.1 69.2 68.8 0.0 1.0 --- 0.00 29.680
06/06/2002 6:00 a 69.0 69.0 69.4 68.8 0.0 0.0 --- 0.00 29.686
06/06/2002 6:30 a 70.1 70.1 70.8 69.4 0.0 0.0 --- 0.00 29.695
06/06/2002 7:00 a 71.5 71.5 72.4 70.8 0.0 0.0 --- 0.00 29.693
06/06/2002 7:30 a 73.6 73.6 74.4 72.4 0.0 0.0 --- 0.00 29.693
06/06/2002 8:00 a 73.9 73.9 74.1 73.6 0.0 1.0 WSW 0.00 29.703
06/06/2002 8:30 a 73.5 73.5 73.7 73.0 0.0 2.0 WSW 0.00 29.703
06/06/2002 9:00 a 73.9 73.9 74.2 73.0 0.0 1.0 WSW 0.00 29.707
06/06/2002 9:30 a 74.9 74.9 75.8 74.1 0.0 2.0 WSW 0.00 29.704
06/06/2002 10:00 a 76.9 76.9 78.0 75.6 0.0 2.0 SW 0.00 29.696
06/06/2002 10:30 a 77.9 77.9 78.9 76.6 0.0 2.0 SW 0.00 29.707
06/06/2002 11:00 a 76.9 76.9 77.6 76.6 0.0 3.0 ESE 0.00 29.708
06/06/2002 11:30 a 78.6 78.6 80.3 77.5 0.0 2.0 WSW 0.00 29.709
06/06/2002 12:00 p 80.5 80.5 81.2 79.7 0.0 5.0 WSW 0.00 29.717
06/06/2002 12:30 p 80.8 80.8 82.9 79.4 0.0 3.0 WSW 0.00 29.719
06/06/2002 1:00 p 80.0 80.0 80.9 79.1 0.0 3.0 SW 0.00 29.716
06/06/2002 1:30 p 80.3 80.3 81.2 79.1 0.0 3.0 WSW 0.00 29.714
06/06/2002 2:00 p 80.9 80.9 81.5 80.0 0.0 4.0 WSW 0.00 29.714
06/06/2002 2:30 p 79.7 79.7 81.3 78.7 0.0 4.0 WSW 0.00 29.724
06/06/2002 3:00 p 76.4 76.4 78.7 74.8 0.0 2.0 WSW 0.00 29.738
06/06/2002 3:30 p 75.0 75.0 75.4 74.7 0.0 4.0 WSW 0.00 29.732
06/06/2002 4:00 p 74.2 74.2 75.0 73.0 0.0 3.0 WSW 0.00 29.733
06/06/2002 4:30 p 72.5 72.5 73.6 70.5 1.0 4.0 WSW 0.00 29.730
06/06/2002 5:00 p 66.0 66.0 70.5 65.4 0.0 4.0 WSW 0.01 29.722
06/06/2002 5:30 p 65.9 65.9 66.2 65.7 0.0 4.0 WSW 0.00 29.721
06/06/2002 6:00 p 64.9 64.9 65.8 64.0 0.0 2.0 SW 0.00 29.726
06/06/2002 6:30 p 63.5 63.5 64.2 62.7 0.0 3.0 SW 0.05 29.711
06/06/2002 7:00 p 62.4 62.4 62.8 62.1 0.0 4.0 WSW 0.03 29.722
06/06/2002 7:30 p 61.9 61.9 62.5 61.7 0.0 1.0 WSW 0.04 29.716
06/06/2002 8:00 p 62.0 62.0 62.5 61.7 0.0 2.0 SE 0.06 29.733
06/06/2002 8:30 p 62.5 62.5 62.6 62.3 0.0 4.0 SE 0.09 29.734
06/06/2002 9:00 p 62.5 62.5 62.6 62.1 0.0 4.0 SW 0.07 29.740
06/06/2002 9:30 p 61.9 61.9 62.3 61.7 0.0 3.0 ESE 0.06 29.721
06/06/2002 10:00 p 61.8 61.8 62.9 61.0 1.0 5.0 ENE 0.07 29.727
06/06/2002 10:30 p 60.3 60.3 61.3 59.8 0.0 5.0 WSW 0.13 29.778
06/06/2002 11:00 p 59.4 59.4 59.8 59.1 0.0 8.0 E 0.07 29.753
06/06/2002 11:30 p 59.4 59.4 59.5 59.3 0.0 3.0 WSW 0.02 29.775
06/07/2002 12:00 a 59.4 59.4 59.6 59.3 0.0 3.0 SW 0.02 29.767
06/07/2002 12:30 a 59.3 59.3 59.6 58.9 0.0 2.0 S 0.05 29.774
06/07/2002 1:00 a 58.8 58.8 59.0 58.6 0.0 2.0 SE 0.04 29.775
06/07/2002 1:30 a 58.6 58.6 59.0 58.5 0.0 3.0 SE 0.08 29.773
06/07/2002 2:00 a 58.4 58.4 58.8 58.2 0.0 2.0 SE 0.03 29.775
06/07/2002 2:30 a 58.0 58.0 58.3 57.6 0.0 4.0 WSW 0.01 29.772
06/07/2002 3:00 a 57.6 57.6 57.9 57.4 0.0 4.0 WSW 0.03 29.777
06/07/2002 3:30 a 57.5 57.5 57.7 57.4 0.0 2.0 WSW 0.02 29.793
06/07/2002 4:00 a 57.3 57.3 57.6 57.0 0.0 6.0 WSW 0.02 29.796
06/07/2002 4:30 a 57.1 57.1 57.4 56.8 0.0 3.0 WSW 0.03 29.810
06/07/2002 5:00 a 56.6 56.6 56.9 56.4 0.0 5.0 WSW 0.02 29.828
06/07/2002 5:30 a 56.2 56.2 56.5 56.0 0.0 3.0 SSW 0.03 29.841
06/07/2002 6:00 a 55.9 55.9 56.2 55.6 0.0 4.0 WSW 0.01 29.853
06/07/2002 6:30 a 55.6 55.6 55.8 55.5 0.0 4.0 WSW 0.00 29.861
06/07/2002 7:00 a 55.7 55.7 55.8 55.5 0.0 3.0 WSW 0.01 29.886
06/07/2002 7:30 a 55.6 55.6 55.7 55.4 0.0 3.0 NE 0.00 29.899
06/07/2002 8:00 a 55.8 55.8 56.3 55.5 0.0 4.0 SW 0.00 29.915
06/07/2002 8:30 a 56.8 56.8 57.4 56.2 0.0 2.0 E 0.00 29.924
06/07/2002 9:00 a 57.3 57.3 57.6 57.0 0.0 3.0 E 0.00 29.952
06/07/2002 9:30 a 58.5 58.5 60.0 57.2 0.0 3.0 WSW 0.00 29.962
06/07/2002 10:00 a 61.7 61.7 63.3 60.0 0.0 5.0 WSW 0.00 29.974
06/07/2002 10:30 a 63.2 63.2 64.1 62.1 0.0 7.0 ENE 0.00 29.980
06/07/2002 11:00 a 63.9 63.9 65.6 63.0 1.0 6.0 E 0.00 29.978
06/07/2002 11:30 a 63.5 63.5 65.3 62.4 0.0 7.0 WSW 0.00 29.989
06/07/2002 12:00 p 64.6 64.6 68.3 62.1 1.0 6.0 ESE 0.00 30.006
06/07/2002 12:30 p 65.8 65.8 67.1 62.8 0.0 5.0 SE 0.00 30.001
06/07/2002 1:00 p 66.7 66.7 71.2 64.3 0.0 5.0 WSW 0.00 30.007
06/07/2002 1:30 p 66.7 66.7 68.5 64.7 0.0 3.0 SW 0.00 30.007
06/07/2002 2:00 p 67.6 67.6 69.7 65.8 0.0 3.0 S 0.00 30.012
06/07/2002 2:30 p 66.9 66.9 68.3 66.1 0.0 2.0 WSW 0.00 30.024
06/07/2002 3:00 p 68.3 68.3 71.1 66.6 0.0 5.0 SW 0.00 30.021
06/07/2002 3:30 p 69.8 69.8 72.4 67.2 0.0 3.0 S 0.00 30.020
06/07/2002 4:00 p 69.6 69.6 71.7 67.9 0.0 3.0 S 0.00 30.019
06/07/2002 4:30 p 69.1 69.1 70.2 68.3 0.0 3.0 S 0.00 30.013
06/07/2002 5:00 p 69.5 69.5 71.4 68.1 1.0 3.0 ESE 0.00 30.009
06/07/2002 5:30 p 69.1 69.1 69.6 68.6 0.0 2.0 E 0.00 30.011
06/07/2002 6:00 p 68.8 68.8 69.2 68.5 0.0 3.0 ESE 0.00 30.010
06/07/2002 6:30 p 67.1 67.1 68.8 65.8 1.0 5.0 E 0.00 30.017
06/07/2002 7:00 p 65.5 65.5 65.9 65.0 0.0 3.0 E 0.00 30.029
06/07/2002 7:30 p 64.8 64.8 65.3 64.5 0.0 3.0 E 0.00 30.033
06/07/2002 8:00 p 63.8 63.8 64.5 62.9 0.0 1.0 E 0.00 30.048
06/07/2002 8:30 p 62.4 62.4 62.9 61.7 0.0 1.0 E 0.00 30.059
06/07/2002 9:00 p 61.1 61.1 61.7 60.7 0.0 2.0 E 0.00 30.071
06/07/2002 9:30 p 60.4 60.4 60.9 59.8 0.0 2.0 E 0.00 30.081
06/07/2002 10:00 p 59.3 59.3 59.8 58.7 0.0 1.0 --- 0.00 30.100
06/07/2002 10:30 p 58.0 58.0 58.8 57.2 0.0 0.0 --- 0.00 30.111
06/07/2002 11:00 p 57.0 57.0 57.3 56.8 0.0 0.0 --- 0.00 30.122
06/07/2002 11:30 p 56.0 56.0 57.0 55.3 0.0 0.0 --- 0.00 30.120
06/08/2002 12:00 a 55.2 55.2 55.5 54.6 0.0 0.0 --- 0.00 30.124
06/08/2002 12:30 a 54.4 54.4 55.0 54.1 0.0 0.0 --- 0.00 30.118
06/08/2002 1:00 a 54.0 54.0 54.3 53.7 0.0 0.0 --- 0.00 30.112
06/08/2002 1:30 a 53.5 53.5 54.1 52.9 0.0 0.0 --- 0.00 30.122
06/08/2002 2:00 a 53.0 53.0 53.4 52.6 0.0 0.0 --- 0.00 30.132
06/08/2002 2:30 a 52.5 52.5 52.8 52.3 0.0 0.0 --- 0.00 30.138
06/08/2002 3:00 a 51.9 51.9 52.8 51.2 0.0 0.0 --- 0.00 30.142
06/08/2002 3:30 a 51.4 51.4 51.9 50.8 0.0 0.0 --- 0.00 30.142
06/08/2002 4:00 a 50.7 50.7 51.1 50.4 0.0 1.0 --- 0.00 30.147
06/08/2002 4:30 a 50.3 50.3 50.6 50.0 0.0 0.0 --- 0.00 30.150
06/08/2002 5:00 a 50.1 50.1 50.4 49.8 0.0 0.0 --- 0.00 30.151
06/08/2002 5:30 a 49.8 49.8 50.0 49.5 0.0 0.0 --- 0.00 30.157
06/08/2002 6:00 a 50.1 50.1 51.0 49.4 0.0 0.0 --- 0.00 30.161
06/08/2002 6:30 a 51.8 51.8 52.8 50.8 0.0 0.0 --- 0.00 30.167
06/08/2002 7:00 a 53.3 53.3 54.1 52.5 0.0 0.0 --- 0.00 30.179
06/08/2002 7:30 a 55.4 55.4 56.3 54.0 0.0 0.0 --- 0.00 30.187
06/08/2002 8:00 a 57.5 57.5 58.4 56.2 0.0 1.0 E 0.00 30.200
06/08/2002 8:30 a 59.5 59.5 60.7 58.2 0.0 2.0 SSE 0.00 30.211
06/08/2002 9:00 a 61.1 61.1 61.5 60.7 0.0 2.0 SSE 0.00 30.201
06/08/2002 9:30 a 62.2 62.2 63.2 60.8 0.0 2.0 SSE 0.00 30.192
06/08/2002 10:00 a 64.2 64.2 65.3 63.1 0.0 3.0 SW 0.00 30.180
06/08/2002 10:30 a 65.9 65.9 67.3 65.0 0.0 3.0 S 0.00 30.174
06/08/2002 11:00 a 67.6 67.6 69.1 66.3 1.0 3.0 E 0.00 30.164
06/08/2002 11:30 a 69.3 69.3 70.5 68.3 0.0 3.0 S 0.00 30.168
06/08/2002 12:00 p 70.7 70.7 72.2 69.7 0.0 3.0 ESE 0.00 30.167
06/08/2002 12:30 p 71.2 71.2 72.8 70.1 1.0 5.0 ESE 0.00 30.162
06/08/2002 1:00 p 72.7 72.7 73.8 71.5 0.0 4.0 E 0.00 30.152
06/08/2002 1:30 p 73.9 73.9 75.6 72.4 0.0 3.0 E 0.00 30.151
06/08/2002 2:00 p 74.2 74.2 75.8 72.5 0.0 3.0 SE 0.00 30.132
06/08/2002 2:30 p 74.2 74.2 75.6 73.1 1.0 3.0 E 0.00 30.117
06/08/2002 3:00 p 73.6 73.6 74.9 72.3 1.0 5.0 E 0.00 30.111
06/08/2002 3:30 p 73.7 73.7 74.9 73.0 1.0 5.0 E 0.00 30.110
06/08/2002 4:00 p 74.1 74.1 75.1 73.3 1.0 3.0 ESE 0.00 30.113
06/08/2002 4:30 p 73.3 73.3 73.8 72.7 1.0 4.0 E 0.00 30.105
06/08/2002 5:00 p 72.1 72.1 72.7 71.3 1.0 5.0 E 0.00 30.096
06/08/2002 5:30 p 71.6 71.6 72.3 71.1 0.0 3.0 E 0.00 30.099
06/08/2002 6:00 p 70.8 70.8 71.5 70.2 0.0 3.0 E 0.00 30.091
06/08/2002 6:30 p 69.4 69.4 70.3 68.4 0.0 4.0 E 0.00 30.080
06/08/2002 7:00 p 68.2 68.2 68.7 67.5 1.0 4.0 E 0.00 30.080
06/08/2002 7:30 p 66.7 66.7 67.6 66.0 1.0 3.0 E 0.00 30.084
06/08/2002 8:00 p 65.1 65.1 66.0 64.3 1.0 4.0 E 0.00 30.086
06/08/2002 8:30 p 63.3 63.3 64.3 62.6 0.0 3.0 E 0.00 30.088
06/08/2002 9:00 p 61.8 61.8 62.6 61.1 0.0 2.0 E 0.00 30.094
06/08/2002 9:30 p 60.5 60.5 61.1 59.9 0.0 2.0 E 0.00 30.099
06/08/2002 10:00 p 59.3 59.3 60.0 58.7 0.0 1.0 --- 0.00 30.110
06/08/2002 10:30 p 58.0 58.0 58.8 57.3 0.0 1.0 --- 0.00 30.107
06/08/2002 11:00 p 56.6 56.6 57.4 55.7 0.0 0.0 --- 0.00 30.105
06/08/2002 11:30 p 59.4 59.4 64.1 55.7 0.0 0.0 --- 0.00 30.103
06/09/2002 12:00 a 59.0 59.0 63.4 54.6 0.0 0.0 --- 0.00 30.096
06/09/2002 12:30 a 54.0 54.0 54.8 53.3 0.0 0.0 --- 0.00 30.097
06/09/2002 1:00 a 53.8 53.8 54.2 53.5 0.0 0.0 --- 0.00 30.087
06/09/2002 1:30 a 53.4 53.4 53.7 53.1 0.0 0.0 --- 0.00 30.088
06/09/2002 2:00 a 53.0 53.0 53.6 52.7 0.0 0.0 --- 0.00 30.085
06/09/2002 2:30 a 52.5 52.5 52.9 52.3 0.0 0.0 --- 0.00 30.076
06/09/2002 3:00 a 52.2 52.2 52.6 51.8 0.0 0.0 --- 0.00 30.068
06/09/2002 3:30 a 51.9 51.9 52.2 51.6 0.0 0.0 --- 0.00 30.059
06/09/2002 4:00 a 51.6 51.6 51.8 51.3 0.0 0.0 --- 0.00 30.055
06/09/2002 4:30 a 51.3 51.3 51.7 50.9 0.0 0.0 --- 0.00 30.048
06/09/2002 5:00 a 51.4 51.4 51.8 51.0 0.0 0.0 --- 0.00 30.049
06/09/2002 5:30 a 51.2 51.2 51.5 50.7 0.0 0.0 --- 0.00 30.053
06/09/2002 6:00 a 51.6 51.6 52.1 51.1 0.0 0.0 --- 0.00 30.052
06/09/2002 6:30 a 52.3 52.3 52.9 51.9 0.0 0.0 --- 0.00 30.048
06/09/2002 7:00 a 54.0 54.0 54.8 52.8 0.0 0.0 --- 0.00 30.048
06/09/2002 7:30 a 55.9 55.9 57.0 54.8 0.0 0.0 --- 0.00 30.039
06/09/2002 8:00 a 58.0 58.0 59.3 56.9 0.0 0.0 --- 0.00 30.041
06/09/2002 8:30 a 60.2 60.2 61.3 59.3 0.0 0.0 --- 0.00 30.031
06/09/2002 9:00 a 62.6 62.6 63.4 61.3 0.0 2.0 E 0.00 30.029
06/09/2002 9:30 a 65.0 65.0 66.8 63.4 0.0 2.0 E 0.00 30.013
06/09/2002 10:00 a 67.9 67.9 68.7 66.7 0.0 3.0 E 0.00 30.000
06/09/2002 10:30 a 69.8 69.8 71.3 68.6 0.0 4.0 N 0.00 29.986
06/09/2002 11:00 a 71.5 71.5 73.5 70.8 0.0 3.0 WNW 0.00 29.970
06/09/2002 11:30 a 75.3 75.3 77.3 73.3 0.0 3.0 NW 0.00 29.958
06/09/2002 12:00 p 76.5 76.5 79.7 74.7 0.0 4.0 WSW 0.00 29.941
06/09/2002 12:30 p 79.5 79.5 81.5 77.4 0.0 3.0 ENE 0.00 29.919
06/09/2002 1:00 p 81.1 81.1 83.9 79.6 0.0 3.0 W 0.00 29.913
06/09/2002 1:30 p 82.8 82.8 85.2 80.9 0.0 4.0 W 0.00 29.897
06/09/2002 2:00 p 83.2 83.2 84.0 82.4 0.0 3.0 WNW 0.00 29.881
06/09/2002 2:30 p 84.2 84.2 85.6 83.4 0.0 4.0 W 0.00 29.879
06/09/2002 3:00 p 84.6 84.6 85.7 83.6 0.0 4.0 W 0.00 29.888
06/09/2002 3:30 p 84.9 84.9 85.3 84.4 0.0 4.0 W 0.00 29.876
06/09/2002 4:00 p 84.9 84.9 85.5 84.1 0.0 3.0 WSW 0.00 29.868
06/09/2002 4:30 p 85.2 85.2 86.6 84.1 0.0 3.0 W 0.00 29.866
06/09/2002 5:00 p 84.3 84.3 85.9 82.8 0.0 1.0 WNW 0.00 29.848
06/09/2002 5:30 p 82.3 82.3 83.0 81.6 0.0 2.0 N 0.00 29.834
06/09/2002 6:00 p 81.6 81.6 81.9 81.1 0.0 3.0 E 0.00 29.829
06/09/2002 6:30 p 81.3 81.3 81.7 80.7 0.0 2.0 SW 0.00 29.831
06/09/2002 7:00 p 80.0 80.0 81.0 79.2 0.0 1.0 --- 0.00 29.829
06/09/2002 7:30 p 78.9 78.9 79.5 78.4 0.0 0.0 --- 0.00 29.833
06/09/2002 8:00 p 77.6 77.6 78.3 76.6 0.0 0.0 --- 0.00 29.835
06/09/2002 8:30 p 75.1 75.1 76.6 74.1 0.0 0.0 --- 0.00 29.837
06/09/2002 9:00 p 73.9 73.9 74.6 73.4 0.0 0.0 --- 0.00 29.845
06/09/2002 9:30 p 72.9 72.9 73.4 72.3 0.0 0.0 --- 0.00 29.851
06/09/2002 10:00 p 71.8 71.8 72.3 71.5 0.0 0.0 --- 0.00 29.858
06/09/2002 10:30 p 71.2 71.2 71.6 71.0 0.0 0.0 --- 0.00 29.864
06/09/2002 11:00 p 70.9 70.9 71.2 70.5 0.0 0.0 --- 0.00 29.868
06/09/2002 11:30 p 70.2 70.2 70.5 69.5 0.0 0.0 --- 0.00 29.870
06/10/2002 12:00 a 69.2 69.2 69.6 68.5 0.0 0.0 --- 0.00 29.876
06/10/2002 12:30 a 68.1 68.1 68.5 67.7 0.0 0.0 --- 0.00 29.870
06/10/2002 1:00 a 67.4 67.4 68.2 66.6 0.0 0.0 --- 0.00 29.869
06/10/2002 1:30 a 66.6 66.6 67.0 65.9 0.0 0.0 --- 0.00 29.872
06/10/2002 2:00 a 65.8 65.8 66.2 65.3 0.0 0.0 --- 0.00 29.870
06/10/2002 2:30 a 65.3 65.3 65.6 65.1 0.0 0.0 --- 0.00 29.867
06/10/2002 3:00 a 64.8 64.8 65.2 64.5 0.0 0.0 --- 0.00 29.862
06/10/2002 3:30 a 64.1 64.1 64.5 63.8 0.0 0.0 --- 0.00 29.857
06/10/2002 4:00 a 64.0 64.0 64.2 63.8 0.0 0.0 --- 0.00 29.867
06/10/2002 4:30 a 63.7 63.7 64.0 63.3 0.0 0.0 --- 0.00 29.872
06/10/2002 5:00 a 63.2 63.2 63.4 62.8 0.0 0.0 --- 0.00 29.881
06/10/2002 5:30 a 62.9 62.9 63.2 62.7 0.0 1.0 SW 0.00 29.891
06/10/2002 6:00 a 63.0 63.0 63.4 62.7 0.0 0.0 --- 0.00 29.899
06/10/2002 6:30 a 63.3 63.3 64.2 62.7 0.0 0.0 --- 0.00 29.910
06/10/2002 7:00 a 65.1 65.1 67.0 64.2 0.0 0.0 --- 0.00 29.925
06/10/2002 7:30 a 68.0 68.0 69.5 67.0 0.0 1.0 SW 0.00 29.935
06/10/2002 8:00 a 69.5 69.5 70.1 68.8 0.0 1.0 --- 0.00 29.945
06/10/2002 8:30 a 70.5 70.5 71.1 70.0 0.0 1.0 SW 0.00 29.953
06/10/2002 9:00 a 71.5 71.5 72.2 70.9 0.0 1.0 SW 0.00 29.960
06/10/2002 9:30 a 72.8 72.8 73.4 72.2 0.0 2.0 SW 0.00 29.952
06/10/2002 10:00 a 73.9 73.9 74.7 73.2 0.0 2.0 SW 0.00 29.955
06/10/2002 10:30 a 75.1 75.1 75.7 74.4 0.0 3.0 SSW 0.00 29.960
06/10/2002 11:00 a 76.4 76.4 77.1 75.6 0.0 4.0 SSW 0.00 29.964
06/10/2002 11:30 a 78.0 78.0 79.1 77.0 0.0 3.0 SW 0.00 29.968
06/10/2002 12:00 p 79.9 79.9 81.4 78.6 0.0 4.0 WSW 0.00 29.957
06/10/2002 12:30 p 81.1 81.1 82.2 80.1 0.0 2.0 SE 0.00 29.947
06/10/2002 1:00 p 82.0 82.0 82.9 80.8 0.0 2.0 E 0.00 29.943
06/10/2002 1:30 p 82.7 82.7 83.8 81.6 0.0 4.0 E 0.00 29.935
06/10/2002 2:00 p 83.1 83.1 84.7 81.3 0.0 3.0 W 0.00 29.924
06/10/2002 2:30 p 82.6 82.6 84.0 80.4 0.0 2.0 SW 0.00 29.912
06/10/2002 3:00 p 83.1 83.1 84.1 81.2 0.0 2.0 ESE 0.00 29.905
06/10/2002 3:30 p 84.4 84.4 85.6 82.1 0.0 4.0 ESE 0.00 29.898
06/10/2002 4:00 p 83.2 83.2 85.6 80.5 0.0 2.0 SSE 0.00 29.905
06/10/2002 4:30 p 81.1 81.1 82.7 79.4 0.0 2.0 SW 0.00 29.905
06/10/2002 5:00 p 80.4 80.4 81.2 79.8 0.0 4.0 E 0.00 29.902
06/10/2002 5:30 p 79.4 79.4 80.1 78.9 0.0 3.0 ENE 0.00 29.900
06/10/2002 6:00 p 78.7 78.7 79.3 78.2 0.0 2.0 ENE 0.00 29.903
06/10/2002 6:30 p 77.9 77.9 78.3 77.4 0.0 2.0 N 0.00 29.894
06/10/2002 7:00 p 77.0 77.0 77.7 76.3 0.0 2.0 ENE 0.00 29.890
06/10/2002 7:30 p 75.6 75.6 76.3 74.8 0.0 3.0 E 0.00 29.883
06/10/2002 8:00 p 73.9 73.9 75.0 73.0 0.0 2.0 E 0.00 29.883
06/10/2002 8:30 p 72.4 72.4 73.2 71.6 0.0 1.0 E 0.00 29.885
06/10/2002 9:00 p 71.0 71.0 71.7 70.4 0.0 2.0 E 0.00 29.899
06/10/2002 9:30 p 70.0 70.0 70.8 69.5 0.0 2.0 E 0.00 29.907
06/10/2002 10:00 p 68.6 68.6 69.7 68.0 0.0 2.0 E 0.00 29.915
06/10/2002 10:30 p 67.5 67.5 68.0 66.8 0.0 0.0 --- 0.00 29.919
06/10/2002 11:00 p 66.3 66.3 66.8 65.9 0.0 0.0 --- 0.00 29.919
06/10/2002 11:30 p 65.7 65.7 66.1 65.2 0.0 0.0 --- 0.00 29.931
06/11/2002 12:00 a 64.7 64.7 65.2 64.2 0.0 0.0 --- 0.00 29.930
06/11/2002 12:30 a 64.2 64.2 64.4 63.7 0.0 0.0 --- 0.00 29.934
06/11/2002 1:00 a 63.6 63.6 63.8 63.2 0.0 0.0 --- 0.00 29.931
06/11/2002 1:30 a 62.9 62.9 63.4 62.5 0.0 0.0 --- 0.00 29.925
06/11/2002 2:00 a 62.3 62.3 62.6 61.9 0.0 0.0 --- 0.00 29.920
06/11/2002 2:30 a 61.7 61.7 62.1 61.4 0.0 0.0 --- 0.00 29.908
06/11/2002 3:00 a 61.7 61.7 61.9 61.4 0.0 0.0 --- 0.00 29.894
06/11/2002 3:30 a 61.0 61.0 61.5 60.4 0.0 0.0 --- 0.00 29.887
06/11/2002 4:00 a 60.6 60.6 60.7 60.4 0.0 0.0 --- 0.00 29.879
06/11/2002 4:30 a 60.5 60.5 60.7 60.2 0.0 0.0 --- 0.00 29.883
06/11/2002 5:00 a 60.1 60.1 60.3 59.8 0.0 0.0 --- 0.00 29.884
06/11/2002 5:30 a 59.6 59.6 59.9 59.3 0.0 0.0 --- 0.00 29.880
06/11/2002 6:00 a 59.4 59.4 59.7 59.2 0.0 0.0 --- 0.00 29.881
06/11/2002 6:30 a 60.2 60.2 60.8 59.5 0.0 0.0 --- 0.00 29.876
06/11/2002 7:00 a 61.7 61.7 62.4 60.8 0.0 0.0 --- 0.00 29.875
06/11/2002 7:30 a 63.6 63.6 65.6 62.4 0.0 0.0 --- 0.00 29.868
06/11/2002 8:00 a 65.8 65.8 66.8 64.9 0.0 1.0 E 0.00 29.864
06/11/2002 8:30 a 67.2 67.2 68.6 66.2 0.0 0.0 --- 0.00 29.856
06/11/2002 9:00 a 69.5 69.5 70.9 68.6 0.0 1.0 E 0.00 29.847
06/11/2002 9:30 a 72.0 72.0 73.3 70.8 0.0 2.0 E 0.00 29.837
06/11/2002 10:00 a 74.5 74.5 75.6 73.3 0.0 2.0 E 0.00 29.833
06/11/2002 10:30 a 76.8 76.8 77.5 75.5 0.0 1.0 E 0.00 29.820
06/11/2002 11:00 a 79.3 79.3 81.0 77.5 0.0 1.0 E 0.00 29.812
06/11/2002 11:30 a 81.9 81.9 83.5 80.8 0.0 2.0 ENE 0.00 29.800
06/11/2002 12:00 p 84.4 84.4 85.6 82.8 0.0 3.0 ENE 0.00 29.781
06/11/2002 12:30 p 86.4 86.4 87.9 85.2 0.0 3.0 WSW 0.00 29.769
06/11/2002 1:00 p 88.5 88.5 89.4 87.4 0.0 4.0 WSW 0.00 29.757
06/11/2002 1:30 p 89.4 89.4 90.2 88.0 0.0 4.0 WSW 0.00 29.741
06/11/2002 2:00 p 90.7 90.7 91.5 90.1 0.0 5.0 SW 0.00 29.730
06/11/2002 2:30 p 91.5 91.5 92.2 90.3 0.0 4.0 W 0.00 29.718
06/11/2002 3:00 p 91.6 91.6 92.6 90.7 0.0 4.0 WSW 0.00 29.709
06/11/2002 3:30 p 91.4 91.4 92.1 90.1 0.0 3.0 NE 0.00 29.695
06/11/2002 4:00 p 91.0 91.0 91.4 90.5 0.0 5.0 WSW 0.00 29.676
06/11/2002 4:30 p 90.4 90.4 91.2 89.3 0.0 4.0 ESE 0.00 29.667
06/11/2002 5:00 p 89.1 89.1 90.7 87.6 0.0 3.0 SW 0.00 29.664
06/11/2002 5:30 p 87.6 87.6 88.3 87.1 0.0 2.0 SW 0.00 29.660
06/11/2002 6:00 p 86.0 86.0 87.3 85.1 0.0 2.0 WSW 0.00 29.658
06/11/2002 6:30 p 84.9 84.9 85.4 84.5 0.0 2.0 NW 0.00 29.656
06/11/2002 7:00 p 85.4 85.4 86.0 84.9 0.0 1.0 W 0.00 29.661
06/11/2002 7:30 p 84.7 84.7 85.0 84.5 0.0 1.0 W 0.00 29.651
06/11/2002 8:00 p 83.6 83.6 84.8 81.8 0.0 1.0 --- 0.00 29.650
06/11/2002 8:30 p 80.2 80.2 81.8 79.2 0.0 2.0 --- 0.00 29.658
06/11/2002 9:00 p 78.7 78.7 79.5 77.9 0.0 1.0 --- 0.00 29.654
06/11/2002 9:30 p 77.3 77.3 78.1 76.7 0.0 0.0 --- 0.00 29.661
06/11/2002 10:00 p 76.3 76.3 77.5 75.5 0.0 0.0 --- 0.00 29.667
06/11/2002 10:30 p 79.0 79.0 81.2 75.6 0.0 0.0 --- 0.00 29.668
06/11/2002 11:00 p 74.4 74.4 75.6 73.7 0.0 0.0 --- 0.00 29.665
06/11/2002 11:30 p 73.6 73.6 74.1 73.3 0.0 1.0 --- 0.00 29.666
06/12/2002 12:00 a 72.7 72.7 73.4 71.9 0.0 0.0 --- 0.00 29.665
06/12/2002 12:30 a 72.0 72.0 72.3 71.8 0.0 0.0 --- 0.00 29.666
06/12/2002 1:00 a 72.2 72.2 72.3 72.1 0.0 0.0 --- 0.00 29.660
06/12/2002 1:30 a 72.1 72.1 72.5 71.7 0.0 0.0 --- 0.00 29.657
06/12/2002 2:00 a 72.0 72.0 72.4 71.7 0.0 0.0 --- 0.00 29.648
06/12/2002 2:30 a 71.2 71.2 71.7 71.0 0.0 0.0 --- 0.00 29.639
06/12/2002 3:00 a 70.9 70.9 71.1 70.6 0.0 0.0 --- 0.00 29.628
06/12/2002 3:30 a 70.6 70.6 70.8 70.5 0.0 0.0 --- 0.00 29.613
06/12/2002 4:00 a 70.4 70.4 70.6 70.3 0.0 0.0 --- 0.00 29.614
06/12/2002 4:30 a 70.9 70.9 71.0 70.7 0.0 0.0 --- 0.00 29.614
06/12/2002 5:00 a 70.3 70.3 70.7 70.0 0.0 0.0 --- 0.00 29.610
06/12/2002 5:30 a 69.8 69.8 70.0 69.5 0.0 0.0 --- 0.00 29.616
06/12/2002 6:00 a 69.3 69.3 69.6 69.2 0.0 0.0 --- 0.00 29.609
06/12/2002 6:30 a 69.9 69.9 70.5 69.3 0.0 0.0 --- 0.00 29.621
06/12/2002 7:00 a 71.0 71.0 71.8 70.5 0.0 0.0 --- 0.00 29.609
06/12/2002 7:30 a 73.2 73.2 73.7 71.9 0.0 0.0 --- 0.00 29.613
06/12/2002 8:00 a 74.6 74.6 75.7 72.9 0.0 0.0 --- 0.00 29.606
06/12/2002 8:30 a 76.6 76.6 77.5 75.6 0.0 1.0 SW 0.00 29.606
06/12/2002 9:00 a 78.5 78.5 80.0 77.4 0.0 1.0 SSW 0.00 29.596
06/12/2002 9:30 a 80.6 80.6 81.7 79.8 0.0 2.0 WSW 0.00 29.594
06/12/2002 10:00 a 82.5 82.5 83.1 81.5 0.0 3.0 W 0.00 29.589
06/12/2002 10:30 a 84.3 84.3 85.1 82.8 0.0 5.0 W 0.00 29.588
06/12/2002 11:00 a 85.9 85.9 87.0 85.0 0.0 4.0 WSW 0.00 29.576
06/12/2002 11:30 a 87.8 87.8 88.9 86.6 0.0 5.0 WSW 0.00 29.571
06/12/2002 12:00 p 87.6 87.6 89.3 86.5 1.0 4.0 WSW 0.00 29.564
06/12/2002 12:30 p 86.9 86.9 88.0 85.6 0.0 4.0 WSW 0.00 29.562
06/12/2002 1:00 p 87.1 87.1 87.9 86.5 0.0 4.0 W 0.00 29.554
06/12/2002 1:30 p 87.6 87.6 89.3 86.7 1.0 6.0 WSW 0.00 29.541
06/12/2002 2:00 p 88.0 88.0 89.8 87.1 0.0 5.0 WNW 0.00 29.533
06/12/2002 2:30 p 87.9 87.9 89.3 86.8 0.0 4.0 W 0.00 29.522
06/12/2002 3:00 p 86.3 86.3 88.8 83.9 0.0 4.0 W 0.00 29.521
06/12/2002 3:30 p 81.1 81.1 84.0 69.3 1.0 13.0 W 0.22 29.566
06/12/2002 4:00 p 69.2 69.2 70.0 68.6 0.0 2.0 SW 0.46 29.553
06/12/2002 4:30 p 69.7 69.7 70.2 69.2 0.0 1.0 --- 0.04 29.542
06/12/2002 5:00 p 70.9 70.9 72.2 69.9 0.0 1.0 --- 0.00 29.552
06/12/2002 5:30 p 72.7 72.7 72.9 72.3 0.0 1.0 NE 0.00 29.529
06/12/2002 6:00 p 73.3 73.3 73.8 72.8 0.0 1.0 NE 0.00 29.538
06/12/2002 6:30 p 73.3 73.3 73.5 73.0 0.0 1.0 NE 0.00 29.536
06/12/2002 7:00 p 73.4 73.4 73.6 73.1 0.0 0.0 --- 0.00 29.545
06/12/2002 7:30 p 73.1 73.1 73.3 72.9 0.0 0.0 --- 0.00 29.552
06/12/2002 8:00 p 73.1 73.1 73.2 73.0 0.0 0.0 --- 0.00 29.552
06/12/2002 8:30 p 73.1 73.1 73.2 73.0 0.0 0.0 --- 0.00 29.549
06/12/2002 9:00 p 73.0 73.0 73.1 72.9 0.0 0.0 --- 0.00 29.569
06/12/2002 9:30 p 73.5 73.5 73.7 73.0 0.0 1.0 NE 0.00 29.583
06/12/2002 10:00 p 73.0 73.0 73.3 72.8 0.0 0.0 --- 0.00 29.597
06/12/2002 10:30 p 72.8 72.8 73.2 72.6 0.0 0.0 --- 0.00 29.608
06/12/2002 11:00 p 71.5 71.5 72.7 71.1 0.0 0.0 --- 0.00 29.624
06/12/2002 11:30 p 68.9 68.9 71.2 66.8 1.0 4.0 SE 0.00 29.651
06/13/2002 12:00 a 66.0 66.0 66.8 65.5 0.0 5.0 SE 0.00 29.663
06/13/2002 12:30 a 65.1 65.1 65.6 64.6 0.0 1.0 SW 0.00 29.671
06/13/2002 1:00 a 63.8 63.8 64.6 63.1 0.0 2.0 S 0.00 29.673
06/13/2002 1:30 a 62.8 62.8 63.1 62.5 0.0 2.0 S 0.00 29.682
06/13/2002 2:00 a 62.2 62.2 62.6 61.8 0.0 2.0 SE 0.00 29.687
06/13/2002 2:30 a 61.7 61.7 61.9 61.5 0.0 2.0 SE 0.00 29.690
06/13/2002 3:00 a 61.2 61.2 61.7 60.9 0.0 2.0 SE 0.00 29.686
06/13/2002 3:30 a 60.5 60.5 60.9 60.3 0.0 3.0 SE 0.00 29.689
06/13/2002 4:00 a 60.2 60.2 60.5 59.9 0.0 1.0 SE 0.00 29.701
06/13/2002 4:30 a 60.1 60.1 60.3 59.9 0.0 0.0 --- 0.00 29.701
06/13/2002 5:00 a 60.1 60.1 60.3 59.9 0.0 1.0 SE 0.00 29.708
06/13/2002 5:30 a 60.0 60.0 60.2 59.9 0.0 0.0 --- 0.00 29.719
06/13/2002 6:00 a 59.9 59.9 60.0 59.7 0.0 1.0 SE 0.00 29.710
06/13/2002 6:30 a 60.0 60.0 60.1 59.9 0.0 0.0 --- 0.00 29.714
06/13/2002 7:00 a 60.1 60.1 60.4 60.0 0.0 1.0 --- 0.00 29.721
06/13/2002 7:30 a 60.6 60.6 60.8 60.4 0.0 2.0 SE 0.00 29.724
06/13/2002 8:00 a 61.4 61.4 61.8 60.8 0.0 1.0 SE 0.00 29.740
06/13/2002 8:30 a 62.0 62.0 62.7 61.3 0.0 0.0 --- 0.00 29.738
06/13/2002 9:00 a 62.5 62.5 63.2 62.0 0.0 1.0 SE 0.00 29.735
06/13/2002 9:30 a 63.4 63.4 63.9 62.9 0.0 2.0 SE 0.00 29.741
06/13/2002 10:00 a 64.9 64.9 65.7 63.6 0.0 1.0 SE 0.00 29.739
06/13/2002 10:30 a 64.8 64.8 66.1 63.9 0.0 2.0 SSW 0.00 29.740
06/13/2002 11:00 a 64.4 64.4 65.4 63.7 0.0 2.0 SW 0.00 29.729
06/13/2002 11:30 a 65.6 65.6 66.3 64.8 0.0 2.0 SSE 0.00 29.734
06/13/2002 12:00 p 68.6 68.6 69.8 66.2 0.0 2.0 SE 0.00 29.731
06/13/2002 12:30 p 67.0 67.0 68.9 65.9 0.0 3.0 ESE 0.00 29.744
06/13/2002 1:00 p 67.7 67.7 70.3 65.7 0.0 3.0 ESE 0.01 29.736
06/13/2002 1:30 p 69.8 69.8 71.0 69.0 0.0 3.0 E 0.00 29.735
06/13/2002 2:00 p 69.4 69.4 70.6 68.2 0.0 3.0 E 0.00 29.722
06/13/2002 2:30 p 69.8 69.8 71.4 68.7 0.0 2.0 ESE 0.00 29.732
06/13/2002 3:00 p 69.8 69.8 71.0 68.4 0.0 2.0 ESE 0.00 29.713
06/13/2002 3:30 p 68.3 68.3 70.3 67.3 0.0 2.0 ESE 0.00 29.723
06/13/2002 4:00 p 66.5 66.5 67.5 65.8 1.0 4.0 ESE 0.00 29.723
06/13/2002 4:30 p 65.4 65.4 65.9 64.8 1.0 3.0 ESE 0.00 29.725
06/13/2002 5:00 p 64.4 64.4 64.9 63.9 0.0 3.0 E 0.00 29.720
06/13/2002 5:30 p 64.0 64.0 64.3 63.7 0.0 3.0 E 0.00 29.720
06/13/2002 6:00 p 63.7 63.7 64.0 63.5 0.0 2.0 E 0.00 29.715
06/13/2002 6:30 p 63.2 63.2 63.7 62.9 0.0 3.0 ESE 0.00 29.725
06/13/2002 7:00 p 62.7 62.7 63.0 62.4 0.0 2.0 ESE 0.00 29.733
06/13/2002 7:30 p 62.1 62.1 62.4 61.9 0.0 2.0 ESE 0.00 29.732
06/13/2002 8:00 p 61.7 61.7 62.1 61.4 0.0 2.0 ESE 0.00 29.732
06/13/2002 8:30 p 61.4 61.4 61.5 61.2 0.0 2.0 ESE 0.00 29.734
06/13/2002 9:00 p 61.2 61.2 61.4 61.0 0.0 2.0 ESE 0.00 29.740
06/13/2002 9:30 p 61.1 61.1 61.3 61.0 0.0 3.0 ESE 0.00 29.735
06/13/2002 10:00 p 61.0 61.0 61.2 60.7 0.0 3.0 ESE 0.00 29.731
06/13/2002 10:30 p 61.9 61.9 64.5 60.7 0.0 3.0 ESE 0.00 29.736
06/13/2002 11:00 p 61.5 61.5 63.5 60.6 0.0 3.0 SW 0.00 29.730
06/13/2002 11:30 p 60.7 60.7 60.8 60.5 0.0 2.0 SE 0.00 29.740
06/14/2002 12:00 a 60.6 60.6 60.8 60.3 0.0 0.0 --- 0.00 29.728
06/14/2002 12:30 a 60.4 60.4 60.6 60.3 0.0 1.0 --- 0.00 29.740
06/14/2002 1:00 a 60.4 60.4 60.6 60.1 0.0 0.0 --- 0.00 29.736
06/14/2002 1:30 a 59.8 59.8 60.1 59.7 0.0 1.0 SE 0.00 29.731
06/14/2002 2:00 a 59.7 59.7 59.9 59.6 0.0 1.0 --- 0.00 29.712
06/14/2002 2:30 a 59.4 59.4 59.8 59.1 0.0 2.0 SE 0.00 29.698
06/14/2002 3:00 a 59.2 59.2 59.4 59.1 0.0 0.0 --- 0.00 29.695
06/14/2002 3:30 a 59.0 59.0 59.3 58.7 0.0 0.0 --- 0.03 29.676
06/14/2002 4:00 a 58.7 58.7 59.0 58.5 0.0 0.0 --- 0.01 29.668
06/14/2002 4:30 a 58.5 58.5 58.6 58.4 0.0 0.0 --- 0.01 29.660
06/14/2002 5:00 a 58.4 58.4 58.6 58.2 0.0 0.0 --- 0.03 29.662
06/14/2002 5:30 a 58.3 58.3 58.5 58.1 0.0 0.0 --- 0.02 29.659
06/14/2002 6:00 a 58.3 58.3 58.4 58.2 0.0 2.0 --- 0.00 29.659
06/14/2002 6:30 a 58.2 58.2 58.3 58.1 0.0 1.0 SE 0.01 29.656
06/14/2002 7:00 a 58.3 58.3 58.4 58.2 0.0 1.0 --- 0.01 29.651
06/14/2002 7:30 a 58.4 58.4 58.6 58.2 0.0 1.0 SE 0.00 29.646
06/14/2002 8:00 a 58.4 58.4 58.5 58.2 0.0 1.0 SE 0.00 29.647
06/14/2002 8:30 a 58.2 58.2 58.3 58.1 0.0 2.0 SE 0.00 29.651
06/14/2002 9:00 a 58.1 58.1 58.5 57.9 0.0 2.0 SSE 0.01 29.636
06/14/2002 9:30 a 58.3 58.3 58.6 58.1 0.0 3.0 ESE 0.01 29.627
06/14/2002 10:00 a 58.3 58.3 58.4 58.1 0.0 2.0 SE 0.02 29.620
06/14/2002 10:30 a 58.3 58.3 58.4 58.2 0.0 3.0 SE 0.02 29.613
06/14/2002 11:00 a 58.3 58.3 58.5 58.1 0.0 1.0 S 0.01 29.610
06/14/2002 11:30 a 58.6 58.6 58.8 58.2 0.0 2.0 SSE 0.01 29.610
06/14/2002 12:00 p 58.4 58.4 58.6 58.1 0.0 2.0 SSE 0.01 29.605
06/14/2002 12:30 p 58.4 58.4 58.6 58.2 0.0 2.0 SSE 0.01 29.594
06/14/2002 1:00 p 58.2 58.2 58.6 57.9 0.0 3.0 S 0.06 29.599
06/14/2002 1:30 p 58.2 58.2 58.5 57.9 0.0 2.0 SE 0.05 29.600
06/14/2002 2:00 p 58.1 58.1 58.4 57.9 0.0 1.0 SE 0.18 29.608
06/14/2002 2:30 p 58.2 58.2 58.4 58.0 0.0 1.0 SE 0.10 29.605
06/14/2002 3:00 p 58.4 58.4 58.8 58.0 0.0 1.0 SE 0.06 29.592
06/14/2002 3:30 p 58.8 58.8 59.1 58.5 0.0 1.0 SE 0.03 29.582
06/14/2002 4:00 p 58.6 58.6 58.9 58.5 0.0 2.0 S 0.00 29.579
06/14/2002 4:30 p 58.7 58.7 59.0 58.5 0.0 2.0 WSW 0.03 29.568
06/14/2002 5:00 p 58.6 58.6 59.0 58.4 0.0 1.0 WSW 0.01 29.561
06/14/2002 5:30 p 58.6 58.6 58.9 58.4 0.0 1.0 SSW 0.00 29.565
06/14/2002 6:00 p 59.0 59.0 59.2 58.8 0.0 1.0 --- 0.00 29.560
06/14/2002 6:30 p 59.2 59.2 59.4 59.1 0.0 1.0 --- 0.01 29.562
06/14/2002 7:00 p 59.2 59.2 59.4 59.1 0.0 1.0 SSW 0.00 29.569
06/14/2002 7:30 p 59.2 59.2 59.4 59.1 0.0 1.0 SSW 0.01 29.576
06/14/2002 8:00 p 59.4 59.4 59.5 59.3 0.0 2.0 S 0.00 29.582
06/14/2002 8:30 p 59.3 59.3 59.5 59.2 0.0 1.0 W 0.01 29.586
06/14/2002 9:00 p 59.4 59.4 59.5 59.3 0.0 0.0 --- 0.00 29.575
06/14/2002 9:30 p 59.1 59.1 59.5 58.6 0.0 1.0 W 0.02 29.570
06/14/2002 10:00 p 58.7 58.7 58.9 58.6 0.0 1.0 W 0.00 29.588
06/14/2002 10:30 p 58.5 58.5 58.8 58.4 0.0 1.0 W 0.01 29.594
06/14/2002 11:00 p 58.3 58.3 58.6 58.0 0.0 2.0 W 0.00 29.590
06/14/2002 11:30 p 58.1 58.1 58.2 57.9 0.0 2.0 S 0.00 29.583
06/15/2002 12:00 a 57.9 57.9 58.1 57.8 0.0 2.0 S 0.01 29.575
06/15/2002 12:30 a 57.5 57.5 57.9 57.3 0.0 1.0 S 0.00 29.584
06/15/2002 1:00 a 56.7 56.7 57.4 56.4 0.0 2.0 S 0.01 29.566
06/15/2002 1:30 a 56.2 56.2 56.5 56.0 0.0 2.0 S 0.00 29.563
06/15/2002 2:00 a 56.1 56.1 56.3 55.9 0.0 1.0 --- 0.00 29.559
06/15/2002 2:30 a 56.2 56.2 56.3 56.1 0.0 0.0 --- 0.00 29.539
06/15/2002 3:00 a 56.3 56.3 56.5 56.1 0.0 1.0 S 0.00 29.524
06/15/2002 3:30 a 56.2 56.2 56.5 55.8 0.0 1.0 S 0.01 29.515
06/15/2002 4:00 a 55.8 55.8 56.1 55.6 0.0 2.0 S 0.02 29.530
06/15/2002 4:30 a 55.7 55.7 55.9 55.5 0.0 1.0 S 0.01 29.540
06/15/2002 5:00 a 55.5 55.5 55.7 55.3 0.0 0.0 --- 0.01 29.549
06/15/2002 5:30 a 55.2 55.2 55.4 55.1 0.0 2.0 S 0.00 29.544
06/15/2002 6:00 a 55.1 55.1 55.3 54.9 0.0 1.0 --- 0.00 29.536
06/15/2002 6:30 a 55.2 55.2 55.5 55.0 0.0 1.0 S 0.00 29.536
06/15/2002 7:00 a 55.4 55.4 55.8 55.2 0.0 2.0 S 0.00 29.538
06/15/2002 7:30 a 55.9 55.9 56.1 55.6 0.0 1.0 S 0.01 29.545
06/15/2002 8:00 a 56.2 56.2 56.5 56.0 0.0 1.0 --- 0.00 29.542
06/15/2002 8:30 a 56.7 56.7 57.1 56.3 0.0 0.0 --- 0.00 29.527
06/15/2002 9:00 a 56.9 56.9 57.1 56.6 0.0 2.0 S 0.00 29.540
06/15/2002 9:30 a 56.9 56.9 57.2 56.6 0.0 1.0 S 0.00 29.538
06/15/2002 10:00 a 57.8 57.8 58.4 57.2 0.0 1.0 --- 0.00 29.532
06/15/2002 10:30 a 58.8 58.8 59.6 58.1 0.0 3.0 S 0.00 29.542
06/15/2002 11:00 a 58.7 58.7 59.1 58.3 0.0 1.0 S 0.00 29.535
06/15/2002 11:30 a 59.2 59.2 59.6 58.9 0.0 2.0 S 0.00 29.549
06/15/2002 12:00 p 59.3 59.3 59.8 58.9 0.0 2.0 S 0.00 29.547
06/15/2002 12:30 p 59.3 59.3 59.8 59.0 0.0 1.0 S 0.00 29.547
06/15/2002 1:00 p 60.3 60.3 61.7 59.4 0.0 1.0 S 0.00 29.540
06/15/2002 1:30 p 61.9 61.9 62.7 60.9 0.0 1.0 S 0.00 29.529
06/15/2002 2:00 p 61.8 61.8 62.5 60.9 0.0 1.0 S 0.00 29.526
06/15/2002 2:30 p 62.0 62.0 62.3 61.7 0.0 1.0 S 0.00 29.526
06/15/2002 3:00 p 62.0 62.0 62.6 61.5 0.0 0.0 --- 0.00 29.525
06/15/2002 3:30 p 63.0 63.0 64.7 61.6 0.0 1.0 S 0.00 29.525
06/15/2002 4:00 p 64.2 64.2 65.4 63.4 0.0 1.0 S 0.00 29.522
06/15/2002 4:30 p 63.9 63.9 65.0 63.0 0.0 1.0 --- 0.00 29.522
06/15/2002 5:00 p 62.9 62.9 63.5 62.4 0.0 0.0 --- 0.00 29.519
06/15/2002 5:30 p 63.9 63.9 64.4 63.3 0.0 1.0 --- 0.00 29.521
06/15/2002 6:00 p 64.5 64.5 65.5 63.5 0.0 1.0 --- 0.00 29.522
06/15/2002 6:30 p 63.7 63.7 64.3 63.2 0.0 0.0 --- 0.00 29.526
06/15/2002 7:00 p 62.8 62.8 63.3 62.5 0.0 0.0 --- 0.00 29.529
06/15/2002 7:30 p 62.8 62.8 63.0 62.5 0.0 0.0 --- 0.00 29.543
06/15/2002 8:00 p 62.4 62.4 62.6 62.1 0.0 0.0 --- 0.00 29.550
06/15/2002 8:30 p 61.4 61.4 62.1 60.9 0.0 0.0 --- 0.00 29.549
06/15/2002 9:00 p 61.1 61.1 61.2 60.9 0.0 0.0 --- 0.00 29.558
06/15/2002 9:30 p 61.3 61.3 61.4 61.2 0.0 0.0 --- 0.00 29.565
06/15/2002 10:00 p 61.5 61.5 61.7 61.2 0.0 2.0 S 0.00 29.569
06/15/2002 10:30 p 61.2 61.2 61.6 60.9 0.0 4.0 E 0.00 29.569
06/15/2002 11:00 p 60.7 60.7 61.0 60.5 0.0 2.0 E 0.00 29.566
06/15/2002 11:30 p 60.6 60.6 60.7 60.6 0.0 1.0 E 0.00 29.563
06/16/2002 12:00 a 60.6 60.6 60.8 60.3 0.0 1.0 E 0.00 29.565
06/16/2002 12:30 a 59.5 59.5 60.3 58.8 0.0 0.0 --- 0.00 29.565
06/16/2002 1:00 a 58.6 58.6 58.9 58.3 0.0 0.0 --- 0.00 29.566
06/16/2002 1:30 a 57.7 57.7 58.4 57.0 0.0 0.0 --- 0.00 29.563
06/16/2002 2:00 a 57.2 57.2 57.3 56.9 0.0 0.0 --- 0.00 29.563
06/16/2002 2:30 a 56.9 56.9 57.2 56.6 0.0 0.0 --- 0.00 29.564
06/16/2002 3:00 a 56.5 56.5 56.7 56.3 0.0 0.0 --- 0.00 29.562
06/16/2002 3:30 a 56.2 56.2 56.5 55.9 0.0 0.0 --- 0.00 29.567
06/16/2002 4:00 a 55.9 55.9 56.1 55.6 0.0 0.0 --- 0.00 29.568
06/16/2002 4:30 a 55.6 55.6 55.8 55.3 0.0 0.0 --- 0.00 29.569
06/16/2002 5:00 a 55.0 55.0 55.5 54.7 0.0 0.0 --- 0.00 29.577
06/16/2002 5:30 a 54.8 54.8 55.1 54.3 0.0 0.0 --- 0.00 29.579
06/16/2002 6:00 a 54.5 54.5 55.1 54.2 0.0 0.0 --- 0.00 29.572
06/16/2002 6:30 a 55.8 55.8 56.4 55.1 0.0 0.0 --- 0.00 29.572
06/16/2002 7:00 a 57.0 57.0 57.5 56.4 0.0 0.0 --- 0.00 29.575
06/16/2002 7:30 a 58.1 58.1 58.6 57.5 0.0 0.0 --- 0.00 29.577
06/16/2002 8:00 a 59.4 59.4 60.2 58.6 0.0 0.0 --- 0.00 29.579
06/16/2002 8:30 a 59.3 59.3 59.6 59.2 0.0 0.0 --- 0.00 29.590
06/16/2002 9:00 a 59.7 59.7 60.7 59.3 0.0 0.0 --- 0.00 29.590
06/16/2002 9:30 a 61.9 61.9 62.6 60.7 0.0 0.0 --- 0.00 29.585
06/16/2002 10:00 a 65.2 65.2 67.6 62.2 0.0 3.0 W 0.00 29.581
06/16/2002 10:30 a 67.7 67.7 69.7 65.4 0.0 2.0 SSE 0.00 29.574
06/16/2002 11:00 a 71.2 71.2 72.7 69.8 0.0 3.0 S 0.00 29.573
06/16/2002 11:30 a 73.3 73.3 74.7 72.2 0.0 3.0 SSW 0.00 29.562
06/16/2002 12:00 p 75.6 75.6 76.8 73.9 0.0 4.0 E 0.00 29.567
06/16/2002 12:30 p 76.4 76.4 77.9 74.1 0.0 4.0 ENE 0.00 29.558
06/16/2002 1:00 p 79.2 79.2 80.6 77.1 0.0 3.0 ENE 0.00 29.555
06/16/2002 1:30 p 79.1 79.1 80.3 77.2 0.0 2.0 W 0.00 29.548
06/16/2002 2:00 p 81.5 81.5 83.1 80.0 0.0 2.0 WNW 0.00 29.541
06/16/2002 2:30 p 79.9 79.9 82.5 76.7 0.0 3.0 NE 0.00 29.533
06/16/2002 3:00 p 79.2 79.2 81.5 76.3 0.0 3.0 ENE 0.00 29.528
06/16/2002 3:30 p 81.6 81.6 82.5 80.6 0.0 6.0 ENE 0.00 29.522
06/16/2002 4:00 p 79.2 79.2 81.0 77.2 0.0 4.0 W 0.00 29.516
06/16/2002 4:30 p 79.8 79.8 80.2 79.1 0.0 3.0 WNW 0.00 29.520
06/16/2002 5:00 p 78.7 78.7 80.5 75.7 0.0 5.0 W 0.00 29.529
06/16/2002 5:30 p 73.8 73.8 76.1 71.8 0.0 4.0 WSW 0.00 29.538
06/16/2002 6:00 p 75.2 75.2 76.6 74.3 0.0 3.0 WNW 0.00 29.549
06/16/2002 6:30 p 73.7 73.7 75.2 72.8 0.0 2.0 NW 0.00 29.554
06/16/2002 7:00 p 73.0 73.0 73.5 72.5 0.0 2.0 NW 0.00 29.561
06/16/2002 7:30 p 73.2 73.2 73.7 72.7 0.0 2.0 N 0.00 29.573
06/16/2002 8:00 p 71.8 71.8 73.0 70.7 0.0 1.0 NNE 0.00 29.583
06/16/2002 8:30 p 70.3 70.3 70.9 69.2 0.0 1.0 NNE 0.00 29.595
06/16/2002 9:00 p 68.2 68.2 69.1 66.9 0.0 0.0 --- 0.00 29.608
06/16/2002 9:30 p 66.1 66.1 67.0 64.9 0.0 0.0 --- 0.00 29.625
06/16/2002 10:00 p 65.9 65.9 67.0 64.7 0.0 0.0 --- 0.00 29.638
06/16/2002 10:30 p 65.0 65.0 65.6 64.6 0.0 0.0 --- 0.00 29.651
06/16/2002 11:00 p 64.4 64.4 64.9 64.0 0.0 0.0 --- 0.00 29.656
06/16/2002 11:30 p 63.8 63.8 64.6 63.3 0.0 0.0 --- 0.00 29.657
06/17/2002 12:00 a 62.7 62.7 63.4 61.9 0.0 0.0 --- 0.00 29.654
06/17/2002 12:30 a 61.1 61.1 61.9 60.6 0.0 0.0 --- 0.00 29.656
06/17/2002 1:00 a 60.3 60.3 60.7 59.9 0.0 1.0 NNE 0.00 29.661
06/17/2002 1:30 a 59.9 59.9 60.3 59.2 0.0 0.0 --- 0.00 29.658
06/17/2002 2:00 a 58.8 58.8 59.3 58.4 0.0 0.0 --- 0.00 29.658
06/17/2002 2:30 a 57.9 57.9 58.5 57.3 0.0 0.0 --- 0.00 29.660
06/17/2002 3:00 a 57.0 57.0 57.3 56.8 0.0 0.0 --- 0.00 29.668
06/17/2002 3:30 a 56.4 56.4 56.8 55.9 0.0 0.0 --- 0.00 29.674
06/17/2002 4:00 a 55.6 55.6 56.2 55.1 0.0 0.0 --- 0.00 29.673
06/17/2002 4:30 a 55.1 55.1 55.6 54.7 0.0 0.0 --- 0.00 29.680
06/17/2002 5:00 a 54.7 54.7 55.1 54.1 0.0 0.0 --- 0.00 29.691
06/17/2002 5:30 a 54.2 54.2 54.6 53.8 0.0 0.0 --- 0.00 29.699
06/17/2002 6:00 a 54.1 54.1 54.5 53.8 0.0 0.0 --- 0.00 29.702
06/17/2002 6:30 a 54.5 54.5 55.0 54.2 0.0 0.0 --- 0.00 29.709
06/17/2002 7:00 a 56.3 56.3 57.5 55.0 0.0 0.0 --- 0.00 29.723
06/17/2002 7:30 a 59.2 59.2 64.9 57.5 0.0 0.0 --- 0.00 29.725
06/17/2002 8:00 a 62.4 62.4 65.0 61.2 0.0 0.0 --- 0.00 29.735
06/17/2002 8:30 a 64.9 64.9 66.0 63.5 0.0 2.0 NNE 0.00 29.737
06/17/2002 9:00 a 67.1 67.1 68.1 66.0 0.0 2.0 NNW 0.00 29.734
06/17/2002 9:30 a 69.2 69.2 70.3 68.0 0.0 3.0 SSE 0.00 29.730
06/17/2002 10:00 a 71.2 71.2 72.3 70.3 0.0 3.0 S 0.00 29.727
06/17/2002 10:30 a 72.8 72.8 74.1 71.9 0.0 4.0 SW 0.00 29.727
06/17/2002 11:00 a 74.6 74.6 75.6 73.6 0.0 4.0 W 0.00 29.724
06/17/2002 11:30 a 76.2 76.2 78.4 75.1 0.0 4.0 WSW 0.00 29.727
06/17/2002 12:00 p 77.9 77.9 79.3 76.3 0.0 4.0 WSW 0.00 29.722
06/17/2002 12:30 p 78.5 78.5 79.7 76.0 0.0 4.0 W 0.00 29.717
06/17/2002 1:00 p 78.3 78.3 80.1 75.9 0.0 5.0 WSW 0.00 29.713
06/17/2002 1:30 p 78.9 78.9 81.5 74.8 0.0 4.0 WSW 0.00 29.714
06/17/2002 2:00 p 80.9 80.9 82.0 79.5 0.0 4.0 WSW 0.00 29.706
06/17/2002 2:30 p 80.7 80.7 81.9 78.2 0.0 5.0 W 0.00 29.707
06/17/2002 3:00 p 80.4 80.4 82.0 77.9 0.0 6.0 W 0.00 29.701
06/17/2002 3:30 p 80.7 80.7 82.9 78.7 0.0 4.0 E 0.00 29.706
06/17/2002 4:00 p 80.8 80.8 81.7 79.6 0.0 5.0 W 0.00 29.700
06/17/2002 4:30 p 80.2 80.2 81.6 79.4 0.0 3.0 WSW 0.00 29.699
06/17/2002 5:00 p 78.8 78.8 79.6 78.1 0.0 3.0 WSW 0.00 29.700
06/17/2002 5:30 p 77.9 77.9 78.7 76.8 0.0 3.0 SW 0.00 29.695
06/17/2002 6:00 p 76.6 76.6 77.7 75.3 0.0 4.0 W 0.00 29.694
06/17/2002 6:30 p 76.2 76.2 77.7 74.8 0.0 3.0 WSW 0.00 29.710
06/17/2002 7:00 p 74.2 74.2 74.9 73.4 0.0 1.0 WNW 0.00 29.715
06/17/2002 7:30 p 73.6 73.6 74.6 72.8 0.0 3.0 NE 0.00 29.727
06/17/2002 8:00 p 71.3 71.3 73.0 69.6 0.0 2.0 NE 0.00 29.739
06/17/2002 8:30 p 68.7 68.7 69.6 68.0 0.0 0.0 --- 0.00 29.748
06/17/2002 9:00 p 68.8 68.8 69.4 68.3 1.0 9.0 W 0.00 29.776
06/17/2002 9:30 p 68.6 68.6 72.5 67.5 1.0 6.0 WSW 0.00 29.786
06/17/2002 10:00 p 66.4 66.4 72.1 63.4 0.0 0.0 --- 0.00 29.797
06/17/2002 10:30 p 62.3 62.3 63.6 61.5 0.0 0.0 --- 0.00 29.808
06/17/2002 11:00 p 61.1 61.1 61.7 60.8 0.0 0.0 --- 0.00 29.821
06/17/2002 11:30 p 60.4 60.4 61.3 59.5 0.0 0.0 --- 0.00 29.826
06/18/2002 12:00 a 59.6 59.6 60.0 59.3 0.0 0.0 --- 0.00 29.826
06/18/2002 12:30 a 58.4 58.4 59.4 57.8 0.0 0.0 --- 0.00 29.836
06/18/2002 1:00 a 57.2 57.2 57.8 56.3 0.0 0.0 --- 0.00 29.839
06/18/2002 1:30 a 56.6 56.6 56.8 56.2 0.0 0.0 --- 0.00 29.847
06/18/2002 2:00 a 56.0 56.0 56.4 55.5 0.0 0.0 --- 0.00 29.848
06/18/2002 2:30 a 55.0 55.0 55.9 54.5 0.0 0.0 --- 0.00 29.850
06/18/2002 3:00 a 54.6 54.6 54.9 54.3 0.0 0.0 --- 0.00 29.859
06/18/2002 3:30 a 54.2 54.2 54.6 53.9 0.0 0.0 --- 0.00 29.863
06/18/2002 4:00 a 53.8 53.8 54.2 53.1 0.0 0.0 --- 0.00 29.871
06/18/2002 4:30 a 52.6 52.6 53.1 52.3 0.0 0.0 --- 0.00 29.887
06/18/2002 5:00 a 52.5 52.5 52.8 52.2 0.0 0.0 --- 0.00 29.890
06/18/2002 5:30 a 52.4 52.4 52.7 52.0 0.0 0.0 --- 0.00 29.901
06/18/2002 6:00 a 52.4 52.4 52.8 52.0 0.0 0.0 --- 0.00 29.915
06/18/2002 6:30 a 52.9 52.9 53.7 52.3 0.0 0.0 --- 0.00 29.925
06/18/2002 7:00 a 54.3 54.3 55.3 53.6 0.0 0.0 --- 0.00 29.935
06/18/2002 7:30 a 57.4 57.4 64.3 55.3 0.0 0.0 --- 0.00 29.942
06/18/2002 8:00 a 61.6 61.6 64.4 61.1 0.0 1.0 --- 0.00 29.957
06/18/2002 8:30 a 64.0 64.0 65.3 61.9 0.0 0.0 --- 0.00 29.967
06/18/2002 9:00 a 66.4 66.4 67.5 65.3 0.0 0.0 --- 0.00 29.974
06/18/2002 9:30 a 68.6 68.6 69.4 67.5 0.0 1.0 --- 0.00 29.977
06/18/2002 10:00 a 70.6 70.6 71.7 69.4 0.0 2.0 WSW 0.00 29.976
06/18/2002 10:30 a 72.6 72.6 74.0 71.2 0.0 2.0 E 0.00 29.979
06/18/2002 11:00 a 74.3 74.3 75.3 73.3 0.0 3.0 SW 0.00 29.983
06/18/2002 11:30 a 76.5 76.5 77.8 75.3 0.0 2.0 SW 0.00 29.984
06/18/2002 12:00 p 77.7 77.7 79.6 76.1 0.0 3.0 S 0.00 29.992
06/18/2002 12:30 p 78.9 78.9 80.0 77.7 0.0 3.0 WSW 0.00 29.989
06/18/2002 1:00 p 80.5 80.5 81.3 79.0 0.0 2.0 ENE 0.00 29.990
06/18/2002 1:30 p 81.0 81.0 81.8 80.2 0.0 4.0 WSW 0.00 29.989
06/18/2002 2:00 p 81.7 81.7 83.5 80.2 1.0 5.0 WSW 0.00 29.987
06/18/2002 2:30 p 80.8 80.8 82.5 78.2 0.0 4.0 W 0.00 29.983
06/18/2002 3:00 p 81.4 81.4 82.7 79.3 0.0 3.0 ESE 0.00 29.973
06/18/2002 3:30 p 79.9 79.9 81.5 77.7 0.0 5.0 ESE 0.00 29.973
06/18/2002 4:00 p 79.9 79.9 81.4 78.3 0.0 4.0 WSW 0.00 29.976
06/18/2002 4:30 p 77.8 77.8 78.6 76.6 0.0 1.0 --- 0.00 29.966
06/18/2002 5:00 p 78.2 78.2 79.7 76.8 0.0 1.0 NNW 0.00 29.959
06/18/2002 5:30 p 77.7 77.7 78.7 77.0 0.0 1.0 NNW 0.00 29.959
06/18/2002 6:00 p 78.2 78.2 79.0 77.5 0.0 1.0 --- 0.00 29.973
06/18/2002 6:30 p 75.8 75.8 78.5 74.4 0.0 3.0 NNE 0.00 29.996
06/18/2002 7:00 p 74.0 74.0 74.6 73.7 0.0 2.0 NE 0.00 30.007
06/18/2002 7:30 p 73.2 73.2 74.0 72.0 0.0 2.0 ENE 0.00 30.018
06/18/2002 8:00 p 66.5 66.5 72.0 62.2 1.0 5.0 WSW 0.10 30.057
06/18/2002 8:30 p 62.2 62.2 62.5 61.8 0.0 2.0 S 0.00 30.043
06/18/2002 9:00 p 62.6 62.6 63.0 61.9 0.0 2.0 SE 0.00 30.040
06/18/2002 9:30 p 62.9 62.9 63.3 62.5 0.0 0.0 --- 0.01 30.054
06/18/2002 10:00 p 62.3 62.3 62.7 61.8 0.0 2.0 ESE 0.00 30.071
06/18/2002 10:30 p 61.6 61.6 61.8 61.3 0.0 0.0 --- 0.00 30.071
06/18/2002 11:00 p 61.1 61.1 61.5 60.9 0.0 0.0 --- 0.00 30.075
06/18/2002 11:30 p 60.5 60.5 61.4 59.9 0.0 0.0 --- 0.00 30.082
06/19/2002 12:00 a 59.7 59.7 60.1 59.4 0.0 0.0 --- 0.00 30.095
06/19/2002 12:30 a 59.4 59.4 60.1 58.8 0.0 0.0 --- 0.00 30.104
06/19/2002 1:00 a 58.8 58.8 59.0 58.5 0.0 0.0 --- 0.00 30.097
06/19/2002 1:30 a 58.3 58.3 58.5 58.1 0.0 0.0 --- 0.00 30.097
06/19/2002 2:00 a 58.1 58.1 58.3 57.9 0.0 0.0 --- 0.00 30.089
06/19/2002 2:30 a 58.2 58.2 58.7 57.9 0.0 0.0 --- 0.00 30.099
06/19/2002 3:00 a 58.7 58.7 59.1 58.4 0.0 0.0 --- 0.00 30.110
06/19/2002 3:30 a 59.2 59.2 60.0 58.7 0.0 1.0 --- 0.02 30.110
06/19/2002 4:00 a 59.9 59.9 60.1 59.6 0.0 2.0 SSE 0.03 30.137
06/19/2002 4:30 a 59.7 59.7 60.0 59.6 0.0 1.0 SSE 0.02 30.133
06/19/2002 5:00 a 59.8 59.8 60.1 59.6 0.0 4.0 SSE 0.00 30.142
06/19/2002 5:30 a 59.8 59.8 60.0 59.5 0.0 1.0 SW 0.00 30.148
06/19/2002 6:00 a 60.0 60.0 60.2 59.6 0.0 1.0 SW 0.01 30.172
06/19/2002 6:30 a 60.1 60.1 60.3 59.9 0.0 1.0 SW 0.03 30.163
06/19/2002 7:00 a 60.4 60.4 61.0 60.0 0.0 1.0 SW 0.00 30.158
06/19/2002 7:30 a 61.7 61.7 63.2 61.0 0.0 1.0 SW 0.00 30.163
06/19/2002 8:00 a 62.6 62.6 63.4 62.2 0.0 2.0 SW 0.01 30.180
06/19/2002 8:30 a 63.5 63.5 64.4 62.8 0.0 2.0 SW 0.00 30.185
06/19/2002 9:00 a 64.7 64.7 65.5 63.9 0.0 1.0 --- 0.00 30.184
06/19/2002 9:30 a 66.6 66.6 68.0 65.5 0.0 1.0 SW 0.00 30.181
06/19/2002 10:00 a 69.6 69.6 71.4 67.8 0.0 1.0 --- 0.00 30.183
06/19/2002 10:30 a 71.0 71.0 73.0 68.4 0.0 2.0 SW 0.00 30.206
06/19/2002 11:00 a 69.4 69.4 71.6 68.5 0.0 1.0 --- 0.00 30.221
06/19/2002 11:30 a 67.5 67.5 68.5 65.7 0.0 3.0 ESE 0.00 30.175
06/19/2002 12:00 p 70.3 70.3 73.1 66.5 0.0 3.0 ESE 0.00 30.208
06/19/2002 12:30 p 74.7 74.7 76.3 72.5 0.0 3.0 S 0.00 30.211
06/19/2002 1:00 p 76.5 76.5 78.0 75.2 0.0 2.0 S 0.00 30.208
06/19/2002 1:30 p 77.3 77.3 79.2 75.9 0.0 3.0 SSW 0.00 30.202
06/19/2002 2:00 p 79.1 79.1 81.1 77.5 0.0 3.0 WSW 0.00 30.202
06/19/2002 2:30 p 78.9 78.9 80.0 77.8 0.0 3.0 ENE 0.00 30.204
06/19/2002 3:00 p 78.6 78.6 79.4 77.8 0.0 3.0 ENE 0.00 30.195
06/19/2002 3:30 p 78.5 78.5 79.5 76.6 0.0 2.0 NE 0.00 30.192
06/19/2002 4:00 p 79.1 79.1 80.2 78.2 0.0 2.0 E 0.00 30.194
06/19/2002 4:30 p 80.2 80.2 81.5 78.6 0.0 2.0 NNE 0.00 30.195
06/19/2002 5:00 p 79.9 79.9 82.2 77.6 0.0 2.0 N 0.00 30.194
06/19/2002 5:30 p 77.6 77.6 78.1 77.1 0.0 2.0 W 0.00 30.189
06/19/2002 6:00 p 76.9 76.9 77.4 76.5 0.0 1.0 W 0.00 30.188
06/19/2002 6:30 p 75.9 75.9 76.8 75.1 0.0 1.0 W 0.00 30.194
06/19/2002 7:00 p 74.6 74.6 75.2 74.1 0.0 3.0 N 0.00 30.221
06/19/2002 7:30 p 73.7 73.7 74.4 72.7 0.0 2.0 E 0.00 30.223
06/19/2002 8:00 p 71.5 71.5 72.7 70.2 0.0 2.0 W 0.00 30.225
06/19/2002 8:30 p 69.6 69.6 70.2 69.0 0.0 2.0 WNW 0.00 30.233
06/19/2002 9:00 p 68.2 68.2 69.0 67.3 0.0 1.0 --- 0.00 30.244
06/19/2002 9:30 p 66.5 66.5 67.3 65.9 0.0 0.0 --- 0.00 30.255
06/19/2002 10:00 p 65.2 65.2 65.9 64.5 0.0 0.0 --- 0.00 30.257
06/19/2002 10:30 p 64.3 64.3 65.2 63.6 0.0 0.0 --- 0.00 30.254
06/19/2002 11:00 p 63.0 63.0 63.8 62.0 0.0 0.0 --- 0.00 30.251
06/19/2002 11:30 p 61.8 61.8 62.1 61.4 0.0 0.0 --- 0.00 30.254
06/20/2002 12:00 a 61.2 61.2 61.7 60.7 0.0 0.0 --- 0.00 30.259
06/20/2002 12:30 a 60.3 60.3 60.9 59.8 0.0 0.0 --- 0.00 30.261
06/20/2002 1:00 a 59.7 59.7 60.0 59.4 0.0 0.0 --- 0.00 30.260
06/20/2002 1:30 a 59.7 59.7 60.0 59.5 0.0 0.0 --- 0.00 30.261
06/20/2002 2:00 a 59.0 59.0 59.6 58.5 0.0 0.0 --- 0.00 30.257
06/20/2002 2:30 a 58.6 58.6 58.9 58.3 0.0 0.0 --- 0.00 30.260
06/20/2002 3:00 a 58.3 58.3 58.6 57.9 0.0 0.0 --- 0.00 30.263
06/20/2002 3:30 a 57.8 57.8 58.2 57.4 0.0 0.0 --- 0.00 30.264
06/20/2002 4:00 a 57.5 57.5 58.0 57.2 0.0 0.0 --- 0.00 30.272
06/20/2002 4:30 a 57.1 57.1 57.5 56.8 0.0 0.0 --- 0.00 30.275
06/20/2002 5:00 a 56.7 56.7 57.2 56.2 0.0 0.0 --- 0.00 30.279
06/20/2002 5:30 a 56.3 56.3 56.7 55.9 0.0 0.0 --- 0.00 30.283
06/20/2002 6:00 a 56.2 56.2 56.4 55.9 0.0 0.0 --- 0.00 30.295
06/20/2002 6:30 a 56.8 56.8 57.3 56.3 0.0 0.0 --- 0.00 30.303
06/20/2002 7:00 a 58.3 58.3 59.3 57.2 0.0 0.0 --- 0.00 30.313
06/20/2002 7:30 a 60.6 60.6 65.8 59.3 0.0 0.0 --- 0.00 30.318
06/20/2002 8:00 a 64.1 64.1 65.9 63.0 0.0 0.0 --- 0.00 30.331
06/20/2002 8:30 a 66.3 66.3 67.8 65.1 0.0 0.0 --- 0.00 30.330
06/20/2002 9:00 a 69.0 69.0 70.4 67.8 0.0 2.0 W 0.00 30.328
06/20/2002 9:30 a 73.6 73.6 76.3 70.4 0.0 2.0 W 0.00 30.327
06/20/2002 10:00 a 74.3 74.3 76.8 73.4 0.0 3.0 ESE 0.00 30.330
06/20/2002 10:30 a 75.5 75.5 76.6 74.7 0.0 2.0 ESE 0.00 30.327
06/20/2002 11:00 a 77.2 77.2 78.2 76.5 0.0 3.0 ESE 0.00 30.336
06/20/2002 11:30 a 78.7 78.7 80.2 77.8 1.0 4.0 E 0.00 30.338
06/20/2002 12:00 p 79.9 79.9 80.7 79.1 0.0 3.0 ESE 0.00 30.332
06/20/2002 12:30 p 80.7 80.7 81.6 80.0 1.0 4.0 E 0.00 30.330
06/20/2002 1:00 p 81.2 81.2 82.0 80.5 1.0 4.0 E 0.00 30.325
06/20/2002 1:30 p 82.5 82.5 83.2 81.4 0.0 3.0 E 0.00 30.317
06/20/2002 2:00 p 83.5 83.5 84.6 82.6 0.0 3.0 E 0.00 30.306
06/20/2002 2:30 p 83.6 83.6 84.8 82.5 1.0 3.0 E 0.00 30.301
06/20/2002 3:00 p 83.3 83.3 84.1 82.6 1.0 5.0 E 0.00 30.298
06/20/2002 3:30 p 82.9 82.9 83.6 82.1 1.0 4.0 E 0.00 30.298
06/20/2002 4:00 p 82.4 82.4 83.6 81.2 1.0 3.0 E 0.00 30.296
06/20/2002 4:30 p 80.1 80.1 81.2 79.5 1.0 4.0 E 0.00 30.294
06/20/2002 5:00 p 80.3 80.3 81.1 79.6 1.0 3.0 E 0.00 30.285
06/20/2002 5:30 p 78.9 78.9 79.8 78.3 1.0 5.0 E 0.00 30.290
06/20/2002 6:00 p 77.9 77.9 78.3 77.5 1.0 4.0 E 0.00 30.286
06/20/2002 6:30 p 77.2 77.2 77.7 76.6 0.0 3.0 E 0.00 30.286
06/20/2002 7:00 p 76.0 76.0 76.7 75.5 0.0 3.0 E 0.00 30.292
06/20/2002 7:30 p 74.9 74.9 75.6 74.3 0.0 2.0 E 0.00 30.289
06/20/2002 8:00 p 73.6 73.6 74.3 72.3 0.0 1.0 E 0.00 30.290
06/20/2002 8:30 p 71.1 71.1 72.3 70.0 0.0 1.0 --- 0.00 30.295
06/20/2002 9:00 p 69.7 69.7 70.1 69.1 0.0 2.0 E 0.00 30.292
06/20/2002 9:30 p 68.8 68.8 69.8 67.9 0.0 2.0 E 0.00 30.315
06/20/2002 10:00 p 67.5 67.5 67.9 67.1 0.0 1.0 E 0.00 30.322
06/20/2002 10:30 p 66.2 66.2 67.1 65.1 0.0 1.0 --- 0.00 30.322
06/20/2002 11:00 p 67.1 67.1 70.9 64.9 0.0 1.0 --- 0.00 30.319
06/20/2002 11:30 p 63.3 63.3 65.3 61.9 0.0 0.0 --- 0.00 30.326
06/21/2002 12:00 a 62.1 62.1 62.6 61.3 0.0 0.0 --- 0.00 30.330
06/21/2002 12:30 a 60.6 60.6 61.3 60.2 0.0 0.0 --- 0.00 30.319
06/21/2002 1:00 a 60.3 60.3 60.8 59.5 0.0 0.0 --- 0.00 30.323
06/21/2002 1:30 a 59.2 59.2 59.8 58.8 0.0 0.0 --- 0.00 30.319
06/21/2002 2:00 a 58.9 58.9 59.2 58.3 0.0 0.0 --- 0.00 30.316
06/21/2002 2:30 a 58.2 58.2 58.5 57.8 0.0 0.0 --- 0.00 30.310
06/21/2002 3:00 a 58.3 58.3 58.6 57.9 0.0 0.0 --- 0.00 30.308
06/21/2002 3:30 a 57.6 57.6 58.1 57.2 0.0 0.0 --- 0.00 30.297
06/21/2002 4:00 a 57.5 57.5 57.7 57.1 0.0 0.0 --- 0.00 30.299
06/21/2002 4:30 a 56.8 56.8 57.3 56.4 0.0 0.0 --- 0.00 30.303
06/21/2002 5:00 a 56.7 56.7 57.1 56.4 0.0 0.0 --- 0.00 30.309
06/21/2002 5:30 a 56.3 56.3 56.7 56.0 0.0 0.0 --- 0.00 30.314
06/21/2002 6:00 a 56.4 56.4 56.7 56.1 0.0 0.0 --- 0.00 30.315
06/21/2002 6:30 a 57.0 57.0 57.5 56.6 0.0 0.0 --- 0.00 30.311
06/21/2002 7:00 a 58.5 58.5 59.7 57.6 0.0 0.0 --- 0.00 30.322
06/21/2002 7:30 a 61.2 61.2 65.7 59.7 0.0 0.0 --- 0.00 30.323
06/21/2002 8:00 a 64.9 64.9 66.3 63.7 0.0 0.0 --- 0.00 30.325
06/21/2002 8:30 a 67.2 67.2 68.4 66.0 0.0 0.0 --- 0.00 30.330
06/21/2002 9:00 a 69.2 69.2 70.1 68.3 0.0 3.0 S 0.00 30.330
06/21/2002 9:30 a 71.0 71.0 72.1 70.0 0.0 3.0 S 0.00 30.328
06/21/2002 10:00 a 72.9 72.9 74.1 71.8 0.0 3.0 S 0.00 30.326
06/21/2002 10:30 a 75.0 75.0 76.0 74.0 0.0 2.0 WNW 0.00 30.318
06/21/2002 11:00 a 76.8 76.8 78.1 75.7 0.0 2.0 NW 0.00 30.313
06/21/2002 11:30 a 78.7 78.7 80.4 77.3 0.0 2.0 S 0.00 30.313
06/21/2002 12:00 p 80.4 80.4 81.7 79.4 0.0 2.0 NNW 0.00 30.306
06/21/2002 12:30 p 81.9 81.9 83.2 80.2 0.0 3.0 W 0.00 30.309
06/21/2002 1:00 p 83.1 83.1 84.1 81.0 0.0 3.0 ENE 0.00 30.291
06/21/2002 1:30 p 84.2 84.2 85.6 82.8 0.0 3.0 W 0.00 30.277
06/21/2002 2:00 p 84.9 84.9 86.3 83.5 0.0 3.0 WSW 0.00 30.271
06/21/2002 2:30 p 85.9 85.9 87.1 84.8 0.0 2.0 SE 0.00 30.252
06/21/2002 3:00 p 84.4 84.4 86.4 82.2 0.0 3.0 SSE 0.00 30.244
06/21/2002 3:30 p 84.2 84.2 85.9 81.4 0.0 2.0 ENE 0.00 30.234
06/21/2002 4:00 p 83.8 83.8 86.2 81.2 0.0 2.0 SW 0.00 30.224
06/21/2002 4:30 p 84.8 84.8 85.3 84.0 0.0 3.0 E 0.00 30.213
06/21/2002 5:00 p 83.5 83.5 84.8 82.5 0.0 2.0 SSE 0.00 30.206
06/21/2002 5:30 p 81.9 81.9 82.8 81.5 0.0 2.0 SSE 0.00 30.195
06/21/2002 6:00 p 81.2 81.2 81.9 80.6 0.0 2.0 SSE 0.00 30.189
06/21/2002 6:30 p 81.8 81.8 83.6 80.5 0.0 2.0 SSE 0.00 30.191
06/21/2002 7:00 p 80.6 80.6 83.1 78.4 0.0 1.0 SSE 0.00 30.193
06/21/2002 7:30 p 77.7 77.7 78.6 76.8 0.0 1.0 SSE 0.00 30.196
06/21/2002 8:00 p 76.3 76.3 77.0 75.4 0.0 1.0 SSE 0.00 30.207
06/21/2002 8:30 p 74.2 74.2 75.4 73.3 0.0 0.0 --- 0.00 30.215
06/21/2002 9:00 p 72.8 72.8 73.3 72.2 0.0 1.0 --- 0.00 30.224
06/21/2002 9:30 p 71.5 71.5 72.2 71.0 0.0 0.0 --- 0.00 30.227
06/21/2002 10:00 p 70.5 70.5 71.0 70.1 0.0 0.0 --- 0.00 30.230
06/21/2002 10:30 p 69.3 69.3 70.1 68.3 0.0 0.0 --- 0.00 30.223
06/21/2002 11:00 p 67.9 67.9 68.3 67.7 0.0 0.0 --- 0.00 30.210
06/21/2002 11:30 p 67.6 67.6 68.0 67.1 0.0 0.0 --- 0.00 30.204
06/22/2002 12:00 a 66.6 66.6 67.1 66.1 0.0 0.0 --- 0.00 30.202
06/22/2002 12:30 a 65.5 65.5 66.3 64.9 0.0 0.0 --- 0.00 30.195
06/22/2002 1:00 a 64.5 64.5 65.0 64.3 0.0 0.0 --- 0.00 30.194
06/22/2002 1:30 a 63.9 63.9 64.4 63.5 0.0 0.0 --- 0.00 30.188
06/22/2002 2:00 a 63.2 63.2 63.6 62.9 0.0 0.0 --- 0.00 30.175
06/22/2002 2:30 a 62.8 62.8 63.1 62.7 0.0 0.0 --- 0.00 30.174
06/22/2002 3:00 a 62.6 62.6 63.1 62.3 0.0 0.0 --- 0.00 30.176
06/22/2002 3:30 a 61.9 61.9 62.3 61.2 0.0 0.0 --- 0.00 30.171
06/22/2002 4:00 a 61.3 61.3 61.7 60.9 0.0 0.0 --- 0.00 30.166
06/22/2002 4:30 a 61.4 61.4 61.9 61.0 0.0 0.0 --- 0.00 30.172
06/22/2002 5:00 a 60.7 60.7 61.6 60.1 0.0 0.0 --- 0.00 30.174
06/22/2002 5:30 a 60.2 60.2 60.7 60.0 0.0 0.0 --- 0.00 30.180
06/22/2002 6:00 a 60.2 60.2 60.7 59.8 0.0 0.0 --- 0.00 30.188
06/22/2002 6:30 a 61.0 61.0 61.5 60.6 0.0 0.0 --- 0.00 30.191
06/22/2002 7:00 a 62.1 62.1 62.9 61.3 0.0 0.0 --- 0.00 30.194
06/22/2002 7:30 a 64.3 64.3 67.8 62.9 0.0 0.0 --- 0.00 30.195
06/22/2002 8:00 a 67.0 67.0 68.3 66.0 0.0 0.0 --- 0.00 30.199
06/22/2002 8:30 a 69.2 69.2 70.4 67.7 0.0 1.0 --- 0.00 30.202
06/22/2002 9:00 a 71.7 71.7 73.1 70.3 0.0 2.0 SSE 0.00 30.201
06/22/2002 9:30 a 74.1 74.1 75.3 73.1 0.0 2.0 SSE 0.00 30.187
06/22/2002 10:00 a 76.5 76.5 77.6 75.4 0.0 2.0 SSE 0.00 30.186
06/22/2002 10:30 a 78.8 78.8 80.0 77.4 0.0 2.0 NE 0.00 30.184
06/22/2002 11:00 a 80.8 80.8 81.7 79.6 0.0 3.0 W 0.00 30.184
06/22/2002 11:30 a 82.5 82.5 83.7 81.2 0.0 3.0 W 0.00 30.178
06/22/2002 12:00 p 85.1 85.1 86.4 83.3 0.0 3.0 SSW 0.00 30.170
06/22/2002 12:30 p 87.2 87.2 88.5 85.6 0.0 4.0 W 0.00 30.163
06/22/2002 1:00 p 88.5 88.5 89.8 87.6 0.0 2.0 WNW 0.00 30.153
06/22/2002 1:30 p 88.0 88.0 90.2 84.0 0.0 4.0 WSW 0.00 30.141
06/22/2002 2:00 p 87.7 87.7 89.9 83.9 0.0 3.0 WSW 0.00 30.133
06/22/2002 2:30 p 89.4 89.4 90.7 87.1 0.0 3.0 NW 0.00 30.126
06/22/2002 3:00 p 88.4 88.4 90.0 87.0 0.0 4.0 W 0.00 30.113
06/22/2002 3:30 p 88.4 88.4 89.0 87.7 0.0 2.0 NNE 0.00 30.100
06/22/2002 4:00 p 88.1 88.1 89.1 87.5 0.0 2.0 E 0.00 30.096
06/22/2002 4:30 p 87.7 87.7 88.4 87.0 0.0 2.0 E 0.00 30.084
06/22/2002 5:00 p 86.2 86.2 87.7 85.5 0.0 2.0 SW 0.00 30.072
06/22/2002 5:30 p 84.9 84.9 85.7 84.0 0.0 2.0 W 0.00 30.067
06/22/2002 6:00 p 84.1 84.1 84.8 83.4 0.0 1.0 W 0.00 30.066
06/22/2002 6:30 p 82.9 82.9 83.7 82.1 0.0 0.0 --- 0.00 30.066
06/22/2002 7:00 p 81.7 81.7 82.1 81.0 0.0 0.0 --- 0.00 30.067
06/22/2002 7:30 p 80.2 80.2 81.0 79.6 0.0 0.0 --- 0.00 30.067
06/22/2002 8:00 p 79.1 79.1 79.8 78.2 0.0 0.0 --- 0.00 30.067
06/22/2002 8:30 p 77.3 77.3 78.2 76.4 0.0 0.0 --- 0.00 30.073
06/22/2002 9:00 p 75.4 75.4 76.4 74.6 0.0 0.0 --- 0.00 30.080
06/22/2002 9:30 p 74.9 74.9 75.6 74.3 0.0 0.0 --- 0.00 30.089
06/22/2002 10:00 p 74.7 74.7 75.0 74.4 0.0 0.0 --- 0.00 30.087
06/22/2002 10:30 p 74.5 74.5 75.1 74.1 0.0 0.0 --- 0.00 30.097
06/22/2002 11:00 p 73.8 73.8 74.2 73.3 0.0 0.0 --- 0.00 30.108